<?xml version="1.0" encoding="UTF-8" standalone="no" ?>
<gpx xmlns="http://www.topografix.com/GPX/1/1" xmlns:xsi="http://www.w3.org/2001/XMLSchema-instance" xsi:schemaLocation="http://www.topografix.com/GPX/1/1 http://www.topografix.com/GPX/1/1/gpx.xsd" version="1.1" creator="VisuGPX - https://www.visugpx.com">
  <metadata>
    <name>77- Pk Grands Feuillards Béorlots Haute Borne</name>
    <desc><![CDATA[Sur la route Ronde,prendre la route de la Haute Borne jusqu'au carrefour des grands Feuillards.On commence par la route de Joinville,puis les platières des Béorlots.La route des Platières passe entre les rochers et on se dirige vers le Nord jusqu'à la route d'Achères à Arbonne.On se dirige maintenant vers l'Est:route Descamps,route des Aiguisoirs,route de la Princesse Marie et Parking de départ.]]></desc>
  </metadata>
  <trk>
    <name><![CDATA[Car Gds Feuillards Beorlots Haute Bn]]></name>
    <trkseg>
      <trkpt lat="48.37557" lon="2.6232">
        <ele>118.91</ele>
        <time>2018-10-12T07:20:57Z</time>
      </trkpt>
      <trkpt lat="48.37557" lon="2.62319">
        <ele>118.83</ele>
        <time>2018-10-12T07:20:58Z</time>
      </trkpt>
      <trkpt lat="48.37556" lon="2.62319">
        <ele>121.98</ele>
        <time>2018-10-12T07:21:01Z</time>
      </trkpt>
      <trkpt lat="48.37556" lon="2.62318">
        <ele>121.97</ele>
        <time>2018-10-12T07:21:02Z</time>
      </trkpt>
      <trkpt lat="48.3755" lon="2.62313">
        <ele>121.99</ele>
        <time>2018-10-12T07:21:26Z</time>
      </trkpt>
      <trkpt lat="48.37555" lon="2.62318">
        <ele>120.69</ele>
        <time>2018-10-12T07:21:52Z</time>
      </trkpt>
      <trkpt lat="48.37571" lon="2.62319">
        <ele>122.99</ele>
        <time>2018-10-12T07:22:06Z</time>
      </trkpt>
      <trkpt lat="48.37572" lon="2.62318">
        <ele>123.02</ele>
        <time>2018-10-12T07:22:07Z</time>
      </trkpt>
      <trkpt lat="48.37574" lon="2.62318">
        <ele>123.02</ele>
        <time>2018-10-12T07:22:08Z</time>
      </trkpt>
      <trkpt lat="48.37575" lon="2.62317">
        <ele>123.03</ele>
        <time>2018-10-12T07:22:09Z</time>
      </trkpt>
      <trkpt lat="48.37577" lon="2.62308">
        <ele>123.05</ele>
        <time>2018-10-12T07:22:21Z</time>
      </trkpt>
      <trkpt lat="48.37574" lon="2.62302">
        <ele>123.05</ele>
        <time>2018-10-12T07:22:24Z</time>
      </trkpt>
      <trkpt lat="48.37569" lon="2.62289">
        <ele>123.03</ele>
        <time>2018-10-12T07:22:32Z</time>
      </trkpt>
      <trkpt lat="48.3757" lon="2.62288">
        <ele>123.02</ele>
        <time>2018-10-12T07:22:33Z</time>
      </trkpt>
      <trkpt lat="48.3757" lon="2.62286">
        <ele>123.03</ele>
        <time>2018-10-12T07:22:34Z</time>
      </trkpt>
      <trkpt lat="48.37571" lon="2.62284">
        <ele>123.02</ele>
        <time>2018-10-12T07:22:35Z</time>
      </trkpt>
      <trkpt lat="48.37577" lon="2.62278">
        <ele>123.02</ele>
        <time>2018-10-12T07:22:41Z</time>
      </trkpt>
      <trkpt lat="48.37578" lon="2.62276">
        <ele>123.03</ele>
        <time>2018-10-12T07:22:42Z</time>
      </trkpt>
      <trkpt lat="48.37583" lon="2.62264">
        <ele>123.03</ele>
        <time>2018-10-12T07:22:51Z</time>
      </trkpt>
      <trkpt lat="48.37583" lon="2.62262">
        <ele>123.04</ele>
        <time>2018-10-12T07:22:52Z</time>
      </trkpt>
      <trkpt lat="48.37588" lon="2.62257">
        <ele>123.05</ele>
        <time>2018-10-12T07:23:06Z</time>
      </trkpt>
      <trkpt lat="48.37597" lon="2.62239">
        <ele>123.05</ele>
        <time>2018-10-12T07:23:20Z</time>
      </trkpt>
      <trkpt lat="48.37602" lon="2.62233">
        <ele>123.06</ele>
        <time>2018-10-12T07:23:26Z</time>
      </trkpt>
      <trkpt lat="48.37605" lon="2.62227">
        <ele>123.06</ele>
        <time>2018-10-12T07:23:29Z</time>
      </trkpt>
      <trkpt lat="48.37606" lon="2.62226">
        <ele>123.06</ele>
        <time>2018-10-12T07:23:30Z</time>
      </trkpt>
      <trkpt lat="48.37618" lon="2.62202">
        <ele>123.08</ele>
        <time>2018-10-12T07:23:45Z</time>
      </trkpt>
      <trkpt lat="48.37623" lon="2.62193">
        <ele>123.1</ele>
        <time>2018-10-12T07:23:57Z</time>
      </trkpt>
      <trkpt lat="48.37627" lon="2.6218">
        <ele>123.12</ele>
        <time>2018-10-12T07:24:06Z</time>
      </trkpt>
      <trkpt lat="48.37635" lon="2.62163">
        <ele>123.16</ele>
        <time>2018-10-12T07:24:18Z</time>
      </trkpt>
      <trkpt lat="48.3764" lon="2.62154">
        <ele>123.19</ele>
        <time>2018-10-12T07:24:24Z</time>
      </trkpt>
      <trkpt lat="48.37644" lon="2.6214">
        <ele>123.22</ele>
        <time>2018-10-12T07:24:34Z</time>
      </trkpt>
      <trkpt lat="48.37645" lon="2.62137">
        <ele>123.23</ele>
        <time>2018-10-12T07:24:36Z</time>
      </trkpt>
      <trkpt lat="48.3765" lon="2.62129">
        <ele>123.26</ele>
        <time>2018-10-12T07:24:42Z</time>
      </trkpt>
      <trkpt lat="48.37651" lon="2.62127">
        <ele>123.27</ele>
        <time>2018-10-12T07:24:43Z</time>
      </trkpt>
      <trkpt lat="48.37651" lon="2.62126">
        <ele>123.27</ele>
        <time>2018-10-12T07:24:44Z</time>
      </trkpt>
      <trkpt lat="48.37652" lon="2.62124">
        <ele>123.27</ele>
        <time>2018-10-12T07:24:45Z</time>
      </trkpt>
      <trkpt lat="48.37653" lon="2.62122">
        <ele>123.26</ele>
        <time>2018-10-12T07:24:46Z</time>
      </trkpt>
      <trkpt lat="48.37654" lon="2.6212">
        <ele>123.28</ele>
        <time>2018-10-12T07:24:47Z</time>
      </trkpt>
      <trkpt lat="48.37662" lon="2.62101">
        <ele>123.36</ele>
        <time>2018-10-12T07:25:01Z</time>
      </trkpt>
      <trkpt lat="48.37667" lon="2.62092">
        <ele>123.36</ele>
        <time>2018-10-12T07:25:07Z</time>
      </trkpt>
      <trkpt lat="48.37667" lon="2.6209">
        <ele>123.37</ele>
        <time>2018-10-12T07:25:08Z</time>
      </trkpt>
      <trkpt lat="48.37679" lon="2.62068">
        <ele>123.41</ele>
        <time>2018-10-12T07:25:23Z</time>
      </trkpt>
      <trkpt lat="48.37679" lon="2.62067">
        <ele>123.42</ele>
        <time>2018-10-12T07:25:24Z</time>
      </trkpt>
      <trkpt lat="48.3768" lon="2.62065">
        <ele>123.41</ele>
        <time>2018-10-12T07:25:25Z</time>
      </trkpt>
      <trkpt lat="48.37691" lon="2.62047">
        <ele>123.44</ele>
        <time>2018-10-12T07:25:40Z</time>
      </trkpt>
      <trkpt lat="48.37698" lon="2.62028">
        <ele>123.44</ele>
        <time>2018-10-12T07:25:54Z</time>
      </trkpt>
      <trkpt lat="48.37706" lon="2.62012">
        <ele>123.47</ele>
        <time>2018-10-12T07:26:09Z</time>
      </trkpt>
      <trkpt lat="48.37717" lon="2.61989">
        <ele>123.55</ele>
        <time>2018-10-12T07:26:27Z</time>
      </trkpt>
      <trkpt lat="48.37724" lon="2.61977">
        <ele>123.61</ele>
        <time>2018-10-12T07:26:37Z</time>
      </trkpt>
      <trkpt lat="48.37727" lon="2.61971">
        <ele>123.63</ele>
        <time>2018-10-12T07:26:41Z</time>
      </trkpt>
      <trkpt lat="48.37729" lon="2.61968">
        <ele>123.64</ele>
        <time>2018-10-12T07:26:43Z</time>
      </trkpt>
      <trkpt lat="48.37731" lon="2.61962">
        <ele>123.65</ele>
        <time>2018-10-12T07:26:46Z</time>
      </trkpt>
      <trkpt lat="48.37744" lon="2.61935">
        <ele>123.81</ele>
        <time>2018-10-12T07:27:03Z</time>
      </trkpt>
      <trkpt lat="48.37753" lon="2.61917">
        <ele>123.89</ele>
        <time>2018-10-12T07:27:15Z</time>
      </trkpt>
      <trkpt lat="48.37764" lon="2.61891">
        <ele>124.02</ele>
        <time>2018-10-12T07:27:32Z</time>
      </trkpt>
      <trkpt lat="48.37764" lon="2.6189">
        <ele>124.03</ele>
        <time>2018-10-12T07:27:33Z</time>
      </trkpt>
      <trkpt lat="48.37765" lon="2.61888">
        <ele>124.04</ele>
        <time>2018-10-12T07:27:34Z</time>
      </trkpt>
      <trkpt lat="48.37777" lon="2.61864">
        <ele>124.16</ele>
        <time>2018-10-12T07:27:52Z</time>
      </trkpt>
      <trkpt lat="48.37788" lon="2.6184">
        <ele>124.27</ele>
        <time>2018-10-12T07:28:09Z</time>
      </trkpt>
      <trkpt lat="48.37799" lon="2.61817">
        <ele>124.34</ele>
        <time>2018-10-12T07:28:24Z</time>
      </trkpt>
      <trkpt lat="48.37807" lon="2.61803">
        <ele>124.38</ele>
        <time>2018-10-12T07:28:34Z</time>
      </trkpt>
      <trkpt lat="48.37808" lon="2.61801">
        <ele>124.38</ele>
        <time>2018-10-12T07:28:35Z</time>
      </trkpt>
      <trkpt lat="48.37809" lon="2.618">
        <ele>124.38</ele>
        <time>2018-10-12T07:28:36Z</time>
      </trkpt>
      <trkpt lat="48.37813" lon="2.61793">
        <ele>124.4</ele>
        <time>2018-10-12T07:28:41Z</time>
      </trkpt>
      <trkpt lat="48.37813" lon="2.61792">
        <ele>124.39</ele>
        <time>2018-10-12T07:28:42Z</time>
      </trkpt>
      <trkpt lat="48.37814" lon="2.6179">
        <ele>124.4</ele>
        <time>2018-10-12T07:28:43Z</time>
      </trkpt>
      <trkpt lat="48.37815" lon="2.61787">
        <ele>124.44</ele>
        <time>2018-10-12T07:28:57Z</time>
      </trkpt>
      <trkpt lat="48.3782" lon="2.61782">
        <ele>124.45</ele>
        <time>2018-10-12T07:29:05Z</time>
      </trkpt>
      <trkpt lat="48.37832" lon="2.61757">
        <ele>124.55</ele>
        <time>2018-10-12T07:29:22Z</time>
      </trkpt>
      <trkpt lat="48.37846" lon="2.61727">
        <ele>124.58</ele>
        <time>2018-10-12T07:29:38Z</time>
      </trkpt>
      <trkpt lat="48.37846" lon="2.61726">
        <ele>124.59</ele>
        <time>2018-10-12T07:29:39Z</time>
      </trkpt>
      <trkpt lat="48.37849" lon="2.61721">
        <ele>124.6</ele>
        <time>2018-10-12T07:29:42Z</time>
      </trkpt>
      <trkpt lat="48.37853" lon="2.61709">
        <ele>124.62</ele>
        <time>2018-10-12T07:29:51Z</time>
      </trkpt>
      <trkpt lat="48.3786" lon="2.61689">
        <ele>124.65</ele>
        <time>2018-10-12T07:30:04Z</time>
      </trkpt>
      <trkpt lat="48.37863" lon="2.61685">
        <ele>124.67</ele>
        <time>2018-10-12T07:30:07Z</time>
      </trkpt>
      <trkpt lat="48.37864" lon="2.61682">
        <ele>124.68</ele>
        <time>2018-10-12T07:30:09Z</time>
      </trkpt>
      <trkpt lat="48.37865" lon="2.61681">
        <ele>124.68</ele>
        <time>2018-10-12T07:30:10Z</time>
      </trkpt>
      <trkpt lat="48.37872" lon="2.61662">
        <ele>124.74</ele>
        <time>2018-10-12T07:30:21Z</time>
      </trkpt>
      <trkpt lat="48.37873" lon="2.6166">
        <ele>124.75</ele>
        <time>2018-10-12T07:30:22Z</time>
      </trkpt>
      <trkpt lat="48.37874" lon="2.61658">
        <ele>122.03</ele>
        <time>2018-10-12T07:30:24Z</time>
      </trkpt>
      <trkpt lat="48.37875" lon="2.61656">
        <ele>122.04</ele>
        <time>2018-10-12T07:30:25Z</time>
      </trkpt>
      <trkpt lat="48.37877" lon="2.61652">
        <ele>122.05</ele>
        <time>2018-10-12T07:30:28Z</time>
      </trkpt>
      <trkpt lat="48.37877" lon="2.61649">
        <ele>122.05</ele>
        <time>2018-10-12T07:30:29Z</time>
      </trkpt>
      <trkpt lat="48.37877" lon="2.61647">
        <ele>122.06</ele>
        <time>2018-10-12T07:30:30Z</time>
      </trkpt>
      <trkpt lat="48.37881" lon="2.61639">
        <ele>122.07</ele>
        <time>2018-10-12T07:30:36Z</time>
      </trkpt>
      <trkpt lat="48.37882" lon="2.61637">
        <ele>122.08</ele>
        <time>2018-10-12T07:30:37Z</time>
      </trkpt>
      <trkpt lat="48.37883" lon="2.61633">
        <ele>122.07</ele>
        <time>2018-10-12T07:30:39Z</time>
      </trkpt>
      <trkpt lat="48.37885" lon="2.61618">
        <ele>122.14</ele>
        <time>2018-10-12T07:30:53Z</time>
      </trkpt>
      <trkpt lat="48.37885" lon="2.61616">
        <ele>124.72</ele>
        <time>2018-10-12T07:30:58Z</time>
      </trkpt>
      <trkpt lat="48.37885" lon="2.61616">
        <ele>121.68</ele>
        <time>2018-10-12T07:30:59Z</time>
      </trkpt>
      <trkpt lat="48.37885" lon="2.61616">
        <ele>121.7</ele>
        <time>2018-10-12T07:31:00Z</time>
      </trkpt>
      <trkpt lat="48.37879" lon="2.616">
        <ele>121.76</ele>
        <time>2018-10-12T07:31:20Z</time>
      </trkpt>
      <trkpt lat="48.37877" lon="2.61589">
        <ele>121.82</ele>
        <time>2018-10-12T07:31:38Z</time>
      </trkpt>
      <trkpt lat="48.37874" lon="2.61581">
        <ele>121.85</ele>
        <time>2018-10-12T07:31:44Z</time>
      </trkpt>
      <trkpt lat="48.37872" lon="2.61572">
        <ele>121.86</ele>
        <time>2018-10-12T07:31:51Z</time>
      </trkpt>
      <trkpt lat="48.37872" lon="2.6157">
        <ele>121.86</ele>
        <time>2018-10-12T07:31:52Z</time>
      </trkpt>
      <trkpt lat="48.37871" lon="2.61568">
        <ele>121.86</ele>
        <time>2018-10-12T07:31:53Z</time>
      </trkpt>
      <trkpt lat="48.37871" lon="2.61567">
        <ele>121.86</ele>
        <time>2018-10-12T07:31:54Z</time>
      </trkpt>
      <trkpt lat="48.37866" lon="2.61548">
        <ele>121.87</ele>
        <time>2018-10-12T07:32:08Z</time>
      </trkpt>
      <trkpt lat="48.37858" lon="2.61522">
        <ele>121.92</ele>
        <time>2018-10-12T07:32:25Z</time>
      </trkpt>
      <trkpt lat="48.37854" lon="2.61505">
        <ele>121.95</ele>
        <time>2018-10-12T07:32:35Z</time>
      </trkpt>
      <trkpt lat="48.37854" lon="2.61504">
        <ele>121.95</ele>
        <time>2018-10-12T07:32:36Z</time>
      </trkpt>
      <trkpt lat="48.37853" lon="2.61502">
        <ele>121.95</ele>
        <time>2018-10-12T07:32:37Z</time>
      </trkpt>
      <trkpt lat="48.37845" lon="2.61479">
        <ele>122</ele>
        <time>2018-10-12T07:32:50Z</time>
      </trkpt>
      <trkpt lat="48.37841" lon="2.6146">
        <ele>122</ele>
        <time>2018-10-12T07:33:02Z</time>
      </trkpt>
      <trkpt lat="48.37835" lon="2.61438">
        <ele>122.03</ele>
        <time>2018-10-12T07:33:15Z</time>
      </trkpt>
      <trkpt lat="48.37833" lon="2.61427">
        <ele>122.03</ele>
        <time>2018-10-12T07:33:21Z</time>
      </trkpt>
      <trkpt lat="48.37832" lon="2.61425">
        <ele>122.03</ele>
        <time>2018-10-12T07:33:22Z</time>
      </trkpt>
      <trkpt lat="48.37832" lon="2.61423">
        <ele>122.03</ele>
        <time>2018-10-12T07:33:23Z</time>
      </trkpt>
      <trkpt lat="48.37823" lon="2.61399">
        <ele>122.04</ele>
        <time>2018-10-12T07:33:38Z</time>
      </trkpt>
      <trkpt lat="48.37823" lon="2.61397">
        <ele>122.04</ele>
        <time>2018-10-12T07:33:39Z</time>
      </trkpt>
      <trkpt lat="48.37822" lon="2.61395">
        <ele>122.05</ele>
        <time>2018-10-12T07:33:40Z</time>
      </trkpt>
      <trkpt lat="48.37822" lon="2.61393">
        <ele>122.05</ele>
        <time>2018-10-12T07:33:41Z</time>
      </trkpt>
      <trkpt lat="48.37822" lon="2.61391">
        <ele>122.05</ele>
        <time>2018-10-12T07:33:42Z</time>
      </trkpt>
      <trkpt lat="48.37821" lon="2.61389">
        <ele>122.05</ele>
        <time>2018-10-12T07:33:43Z</time>
      </trkpt>
      <trkpt lat="48.37821" lon="2.61387">
        <ele>122.05</ele>
        <time>2018-10-12T07:33:44Z</time>
      </trkpt>
      <trkpt lat="48.37813" lon="2.61369">
        <ele>122.07</ele>
        <time>2018-10-12T07:33:57Z</time>
      </trkpt>
      <trkpt lat="48.37813" lon="2.61367">
        <ele>122.07</ele>
        <time>2018-10-12T07:33:58Z</time>
      </trkpt>
      <trkpt lat="48.37815" lon="2.61361">
        <ele>122.08</ele>
        <time>2018-10-12T07:34:13Z</time>
      </trkpt>
      <trkpt lat="48.37812" lon="2.61355">
        <ele>122.07</ele>
        <time>2018-10-12T07:34:18Z</time>
      </trkpt>
      <trkpt lat="48.3781" lon="2.61347">
        <ele>122.1</ele>
        <time>2018-10-12T07:34:33Z</time>
      </trkpt>
      <trkpt lat="48.37809" lon="2.61343">
        <ele>122.1</ele>
        <time>2018-10-12T07:34:36Z</time>
      </trkpt>
      <trkpt lat="48.37804" lon="2.61321">
        <ele>122.09</ele>
        <time>2018-10-12T07:34:51Z</time>
      </trkpt>
      <trkpt lat="48.37799" lon="2.61303">
        <ele>122.09</ele>
        <time>2018-10-12T07:35:03Z</time>
      </trkpt>
      <trkpt lat="48.37793" lon="2.61284">
        <ele>122.11</ele>
        <time>2018-10-12T07:35:14Z</time>
      </trkpt>
      <trkpt lat="48.37793" lon="2.61282">
        <ele>122.11</ele>
        <time>2018-10-12T07:35:15Z</time>
      </trkpt>
      <trkpt lat="48.37793" lon="2.61281">
        <ele>122.13</ele>
        <time>2018-10-12T07:35:16Z</time>
      </trkpt>
      <trkpt lat="48.37792" lon="2.61279">
        <ele>122.14</ele>
        <time>2018-10-12T07:35:17Z</time>
      </trkpt>
      <trkpt lat="48.37792" lon="2.61277">
        <ele>122.12</ele>
        <time>2018-10-12T07:35:18Z</time>
      </trkpt>
      <trkpt lat="48.37793" lon="2.61275">
        <ele>122.12</ele>
        <time>2018-10-12T07:35:19Z</time>
      </trkpt>
      <trkpt lat="48.37793" lon="2.61273">
        <ele>122.12</ele>
        <time>2018-10-12T07:35:20Z</time>
      </trkpt>
      <trkpt lat="48.37792" lon="2.61271">
        <ele>122.13</ele>
        <time>2018-10-12T07:35:21Z</time>
      </trkpt>
      <trkpt lat="48.37792" lon="2.6127">
        <ele>122.13</ele>
        <time>2018-10-12T07:35:22Z</time>
      </trkpt>
      <trkpt lat="48.37783" lon="2.61252">
        <ele>122.14</ele>
        <time>2018-10-12T07:35:34Z</time>
      </trkpt>
      <trkpt lat="48.37783" lon="2.61251">
        <ele>122.15</ele>
        <time>2018-10-12T07:35:35Z</time>
      </trkpt>
      <trkpt lat="48.37783" lon="2.61249">
        <ele>122.15</ele>
        <time>2018-10-12T07:35:36Z</time>
      </trkpt>
      <trkpt lat="48.37778" lon="2.61242">
        <ele>122.16</ele>
        <time>2018-10-12T07:35:49Z</time>
      </trkpt>
      <trkpt lat="48.37775" lon="2.61233">
        <ele>122.17</ele>
        <time>2018-10-12T07:35:54Z</time>
      </trkpt>
      <trkpt lat="48.37774" lon="2.61231">
        <ele>122.17</ele>
        <time>2018-10-12T07:35:55Z</time>
      </trkpt>
      <trkpt lat="48.37774" lon="2.61228">
        <ele>122.17</ele>
        <time>2018-10-12T07:35:57Z</time>
      </trkpt>
      <trkpt lat="48.37773" lon="2.61227">
        <ele>122.19</ele>
        <time>2018-10-12T07:35:58Z</time>
      </trkpt>
      <trkpt lat="48.37772" lon="2.61225">
        <ele>122.19</ele>
        <time>2018-10-12T07:35:59Z</time>
      </trkpt>
      <trkpt lat="48.37771" lon="2.6122">
        <ele>122.2</ele>
        <time>2018-10-12T07:36:02Z</time>
      </trkpt>
      <trkpt lat="48.37771" lon="2.61218">
        <ele>122.22</ele>
        <time>2018-10-12T07:36:03Z</time>
      </trkpt>
      <trkpt lat="48.37771" lon="2.61216">
        <ele>122.22</ele>
        <time>2018-10-12T07:36:04Z</time>
      </trkpt>
      <trkpt lat="48.37769" lon="2.61212">
        <ele>122.23</ele>
        <time>2018-10-12T07:36:08Z</time>
      </trkpt>
      <trkpt lat="48.37769" lon="2.61211">
        <ele>122.23</ele>
        <time>2018-10-12T07:36:09Z</time>
      </trkpt>
      <trkpt lat="48.37768" lon="2.61209">
        <ele>122.23</ele>
        <time>2018-10-12T07:36:10Z</time>
      </trkpt>
      <trkpt lat="48.37768" lon="2.61208">
        <ele>122.23</ele>
        <time>2018-10-12T07:36:11Z</time>
      </trkpt>
      <trkpt lat="48.37768" lon="2.61206">
        <ele>122.24</ele>
        <time>2018-10-12T07:36:12Z</time>
      </trkpt>
      <trkpt lat="48.37768" lon="2.61201">
        <ele>122.25</ele>
        <time>2018-10-12T07:36:15Z</time>
      </trkpt>
      <trkpt lat="48.37768" lon="2.612">
        <ele>122.25</ele>
        <time>2018-10-12T07:36:16Z</time>
      </trkpt>
      <trkpt lat="48.37762" lon="2.61177">
        <ele>122.3</ele>
        <time>2018-10-12T07:36:30Z</time>
      </trkpt>
      <trkpt lat="48.37761" lon="2.61161">
        <ele>122.36</ele>
        <time>2018-10-12T07:36:43Z</time>
      </trkpt>
      <trkpt lat="48.37753" lon="2.61139">
        <ele>122.37</ele>
        <time>2018-10-12T07:36:56Z</time>
      </trkpt>
      <trkpt lat="48.37753" lon="2.61137">
        <ele>122.37</ele>
        <time>2018-10-12T07:36:57Z</time>
      </trkpt>
      <trkpt lat="48.37753" lon="2.61135">
        <ele>122.37</ele>
        <time>2018-10-12T07:36:58Z</time>
      </trkpt>
      <trkpt lat="48.37749" lon="2.61115">
        <ele>122.38</ele>
        <time>2018-10-12T07:37:10Z</time>
      </trkpt>
      <trkpt lat="48.37748" lon="2.61111">
        <ele>122.38</ele>
        <time>2018-10-12T07:37:12Z</time>
      </trkpt>
      <trkpt lat="48.37748" lon="2.61109">
        <ele>122.39</ele>
        <time>2018-10-12T07:37:13Z</time>
      </trkpt>
      <trkpt lat="48.37747" lon="2.61108">
        <ele>122.38</ele>
        <time>2018-10-12T07:37:14Z</time>
      </trkpt>
      <trkpt lat="48.37747" lon="2.61106">
        <ele>122.38</ele>
        <time>2018-10-12T07:37:16Z</time>
      </trkpt>
      <trkpt lat="48.37745" lon="2.61102">
        <ele>122.4</ele>
        <time>2018-10-12T07:37:19Z</time>
      </trkpt>
      <trkpt lat="48.37745" lon="2.611">
        <ele>122.4</ele>
        <time>2018-10-12T07:37:20Z</time>
      </trkpt>
      <trkpt lat="48.37744" lon="2.61098">
        <ele>122.42</ele>
        <time>2018-10-12T07:37:21Z</time>
      </trkpt>
      <trkpt lat="48.37743" lon="2.61097">
        <ele>122.4</ele>
        <time>2018-10-12T07:37:22Z</time>
      </trkpt>
      <trkpt lat="48.3774" lon="2.61081">
        <ele>122.45</ele>
        <time>2018-10-12T07:37:34Z</time>
      </trkpt>
      <trkpt lat="48.37735" lon="2.61058">
        <ele>122.46</ele>
        <time>2018-10-12T07:37:47Z</time>
      </trkpt>
      <trkpt lat="48.3773" lon="2.61035">
        <ele>122.52</ele>
        <time>2018-10-12T07:38:00Z</time>
      </trkpt>
      <trkpt lat="48.37724" lon="2.6102">
        <ele>122.59</ele>
        <time>2018-10-12T07:38:09Z</time>
      </trkpt>
      <trkpt lat="48.37719" lon="2.61001">
        <ele>122.67</ele>
        <time>2018-10-12T07:38:21Z</time>
      </trkpt>
      <trkpt lat="48.37719" lon="2.60999">
        <ele>122.68</ele>
        <time>2018-10-12T07:38:22Z</time>
      </trkpt>
      <trkpt lat="48.37718" lon="2.60994">
        <ele>122.7</ele>
        <time>2018-10-12T07:38:24Z</time>
      </trkpt>
      <trkpt lat="48.37717" lon="2.60992">
        <ele>122.7</ele>
        <time>2018-10-12T07:38:25Z</time>
      </trkpt>
      <trkpt lat="48.37716" lon="2.6099">
        <ele>122.71</ele>
        <time>2018-10-12T07:38:26Z</time>
      </trkpt>
      <trkpt lat="48.37715" lon="2.60989">
        <ele>122.72</ele>
        <time>2018-10-12T07:38:27Z</time>
      </trkpt>
      <trkpt lat="48.37713" lon="2.60982">
        <ele>122.75</ele>
        <time>2018-10-12T07:38:32Z</time>
      </trkpt>
      <trkpt lat="48.37713" lon="2.6098">
        <ele>122.75</ele>
        <time>2018-10-12T07:38:33Z</time>
      </trkpt>
      <trkpt lat="48.37712" lon="2.60979">
        <ele>122.77</ele>
        <time>2018-10-12T07:38:34Z</time>
      </trkpt>
      <trkpt lat="48.37712" lon="2.60977">
        <ele>121.95</ele>
        <time>2018-10-12T07:38:35Z</time>
      </trkpt>
      <trkpt lat="48.37712" lon="2.60976">
        <ele>121.95</ele>
        <time>2018-10-12T07:38:36Z</time>
      </trkpt>
      <trkpt lat="48.3771" lon="2.60969">
        <ele>121.98</ele>
        <time>2018-10-12T07:38:41Z</time>
      </trkpt>
      <trkpt lat="48.3771" lon="2.60967">
        <ele>122</ele>
        <time>2018-10-12T07:38:42Z</time>
      </trkpt>
      <trkpt lat="48.37709" lon="2.60965">
        <ele>122.01</ele>
        <time>2018-10-12T07:38:43Z</time>
      </trkpt>
      <trkpt lat="48.37709" lon="2.60964">
        <ele>122</ele>
        <time>2018-10-12T07:38:44Z</time>
      </trkpt>
      <trkpt lat="48.37709" lon="2.60962">
        <ele>122.02</ele>
        <time>2018-10-12T07:38:45Z</time>
      </trkpt>
      <trkpt lat="48.37708" lon="2.6096">
        <ele>122.02</ele>
        <time>2018-10-12T07:38:46Z</time>
      </trkpt>
      <trkpt lat="48.37708" lon="2.60958">
        <ele>122.03</ele>
        <time>2018-10-12T07:38:47Z</time>
      </trkpt>
      <trkpt lat="48.37705" lon="2.60952">
        <ele>122.06</ele>
        <time>2018-10-12T07:38:52Z</time>
      </trkpt>
      <trkpt lat="48.37704" lon="2.6095">
        <ele>122.08</ele>
        <time>2018-10-12T07:38:53Z</time>
      </trkpt>
      <trkpt lat="48.377" lon="2.60941">
        <ele>122.11</ele>
        <time>2018-10-12T07:38:59Z</time>
      </trkpt>
      <trkpt lat="48.377" lon="2.60939">
        <ele>122.11</ele>
        <time>2018-10-12T07:39:00Z</time>
      </trkpt>
      <trkpt lat="48.37696" lon="2.60929">
        <ele>122.15</ele>
        <time>2018-10-12T07:39:07Z</time>
      </trkpt>
      <trkpt lat="48.37696" lon="2.60926">
        <ele>122.16</ele>
        <time>2018-10-12T07:39:08Z</time>
      </trkpt>
      <trkpt lat="48.37695" lon="2.60924">
        <ele>122.16</ele>
        <time>2018-10-12T07:39:09Z</time>
      </trkpt>
      <trkpt lat="48.37694" lon="2.60922">
        <ele>122.17</ele>
        <time>2018-10-12T07:39:10Z</time>
      </trkpt>
      <trkpt lat="48.37694" lon="2.6092">
        <ele>122.18</ele>
        <time>2018-10-12T07:39:11Z</time>
      </trkpt>
      <trkpt lat="48.37692" lon="2.60914">
        <ele>121.37</ele>
        <time>2018-10-12T07:39:15Z</time>
      </trkpt>
      <trkpt lat="48.37692" lon="2.60912">
        <ele>121.37</ele>
        <time>2018-10-12T07:39:16Z</time>
      </trkpt>
      <trkpt lat="48.37691" lon="2.6091">
        <ele>121.38</ele>
        <time>2018-10-12T07:39:17Z</time>
      </trkpt>
      <trkpt lat="48.37689" lon="2.60904">
        <ele>121.41</ele>
        <time>2018-10-12T07:39:22Z</time>
      </trkpt>
      <trkpt lat="48.37688" lon="2.60902">
        <ele>121.42</ele>
        <time>2018-10-12T07:39:23Z</time>
      </trkpt>
      <trkpt lat="48.37688" lon="2.60901">
        <ele>121.43</ele>
        <time>2018-10-12T07:39:24Z</time>
      </trkpt>
      <trkpt lat="48.37687" lon="2.60899">
        <ele>121.44</ele>
        <time>2018-10-12T07:39:25Z</time>
      </trkpt>
      <trkpt lat="48.37685" lon="2.6089">
        <ele>121.47</ele>
        <time>2018-10-12T07:39:31Z</time>
      </trkpt>
      <trkpt lat="48.37685" lon="2.60888">
        <ele>121.49</ele>
        <time>2018-10-12T07:39:32Z</time>
      </trkpt>
      <trkpt lat="48.37684" lon="2.60886">
        <ele>121.49</ele>
        <time>2018-10-12T07:39:33Z</time>
      </trkpt>
      <trkpt lat="48.37684" lon="2.60884">
        <ele>121.5</ele>
        <time>2018-10-12T07:39:34Z</time>
      </trkpt>
      <trkpt lat="48.3768" lon="2.6087">
        <ele>111.17</ele>
        <time>2018-10-12T07:39:43Z</time>
      </trkpt>
      <trkpt lat="48.3768" lon="2.60869">
        <ele>122.33</ele>
        <time>2018-10-12T07:39:44Z</time>
      </trkpt>
      <trkpt lat="48.3768" lon="2.60868">
        <ele>119.89</ele>
        <time>2018-10-12T07:39:47Z</time>
      </trkpt>
      <trkpt lat="48.37681" lon="2.60868">
        <ele>126.58</ele>
        <time>2018-10-12T07:39:49Z</time>
      </trkpt>
      <trkpt lat="48.37681" lon="2.60868">
        <ele>123.84</ele>
        <time>2018-10-12T07:39:50Z</time>
      </trkpt>
      <trkpt lat="48.37681" lon="2.60866">
        <ele>121.89</ele>
        <time>2018-10-12T07:39:53Z</time>
      </trkpt>
      <trkpt lat="48.37681" lon="2.60864">
        <ele>123.16</ele>
        <time>2018-10-12T07:40:05Z</time>
      </trkpt>
      <trkpt lat="48.37679" lon="2.60862">
        <ele>125.23</ele>
        <time>2018-10-12T07:40:08Z</time>
      </trkpt>
      <trkpt lat="48.37677" lon="2.60861">
        <ele>121.68</ele>
        <time>2018-10-12T07:40:09Z</time>
      </trkpt>
      <trkpt lat="48.37675" lon="2.6086">
        <ele>123.86</ele>
        <time>2018-10-12T07:40:11Z</time>
      </trkpt>
      <trkpt lat="48.37673" lon="2.60857">
        <ele>123.87</ele>
        <time>2018-10-12T07:40:12Z</time>
      </trkpt>
      <trkpt lat="48.37671" lon="2.60854">
        <ele>123.77</ele>
        <time>2018-10-12T07:40:14Z</time>
      </trkpt>
      <trkpt lat="48.3767" lon="2.60852">
        <ele>123.81</ele>
        <time>2018-10-12T07:40:16Z</time>
      </trkpt>
      <trkpt lat="48.3767" lon="2.6085">
        <ele>123.77</ele>
        <time>2018-10-12T07:40:17Z</time>
      </trkpt>
      <trkpt lat="48.3767" lon="2.60848">
        <ele>123.81</ele>
        <time>2018-10-12T07:40:18Z</time>
      </trkpt>
      <trkpt lat="48.3767" lon="2.60846">
        <ele>123.89</ele>
        <time>2018-10-12T07:40:19Z</time>
      </trkpt>
      <trkpt lat="48.3767" lon="2.60842">
        <ele>123.9</ele>
        <time>2018-10-12T07:40:21Z</time>
      </trkpt>
      <trkpt lat="48.37669" lon="2.6084">
        <ele>123.86</ele>
        <time>2018-10-12T07:40:22Z</time>
      </trkpt>
      <trkpt lat="48.37668" lon="2.60839">
        <ele>121.35</ele>
        <time>2018-10-12T07:40:23Z</time>
      </trkpt>
      <trkpt lat="48.37668" lon="2.60837">
        <ele>121.35</ele>
        <time>2018-10-12T07:40:24Z</time>
      </trkpt>
      <trkpt lat="48.37665" lon="2.60825">
        <ele>121.36</ele>
        <time>2018-10-12T07:40:30Z</time>
      </trkpt>
      <trkpt lat="48.37664" lon="2.60823">
        <ele>121.36</ele>
        <time>2018-10-12T07:40:31Z</time>
      </trkpt>
      <trkpt lat="48.37664" lon="2.60821">
        <ele>121.37</ele>
        <time>2018-10-12T07:40:32Z</time>
      </trkpt>
      <trkpt lat="48.37663" lon="2.60819">
        <ele>121.37</ele>
        <time>2018-10-12T07:40:33Z</time>
      </trkpt>
      <trkpt lat="48.37662" lon="2.60817">
        <ele>121.38</ele>
        <time>2018-10-12T07:40:34Z</time>
      </trkpt>
      <trkpt lat="48.37662" lon="2.60814">
        <ele>121.37</ele>
        <time>2018-10-12T07:40:35Z</time>
      </trkpt>
      <trkpt lat="48.37661" lon="2.60812">
        <ele>121.37</ele>
        <time>2018-10-12T07:40:36Z</time>
      </trkpt>
      <trkpt lat="48.3766" lon="2.6081">
        <ele>121.37</ele>
        <time>2018-10-12T07:40:37Z</time>
      </trkpt>
      <trkpt lat="48.37657" lon="2.60794">
        <ele>121.39</ele>
        <time>2018-10-12T07:40:50Z</time>
      </trkpt>
      <trkpt lat="48.37651" lon="2.60775">
        <ele>121.39</ele>
        <time>2018-10-12T07:41:01Z</time>
      </trkpt>
      <trkpt lat="48.37651" lon="2.60773">
        <ele>121.39</ele>
        <time>2018-10-12T07:41:02Z</time>
      </trkpt>
      <trkpt lat="48.3765" lon="2.60772">
        <ele>121.39</ele>
        <time>2018-10-12T07:41:03Z</time>
      </trkpt>
      <trkpt lat="48.37646" lon="2.60758">
        <ele>121.42</ele>
        <time>2018-10-12T07:41:17Z</time>
      </trkpt>
      <trkpt lat="48.37635" lon="2.60728">
        <ele>120.66</ele>
        <time>2018-10-12T07:41:34Z</time>
      </trkpt>
      <trkpt lat="48.37628" lon="2.60705">
        <ele>120.67</ele>
        <time>2018-10-12T07:41:47Z</time>
      </trkpt>
      <trkpt lat="48.37623" lon="2.60689">
        <ele>120.68</ele>
        <time>2018-10-12T07:41:58Z</time>
      </trkpt>
      <trkpt lat="48.37622" lon="2.60687">
        <ele>120.68</ele>
        <time>2018-10-12T07:41:59Z</time>
      </trkpt>
      <trkpt lat="48.37622" lon="2.60686">
        <ele>120.68</ele>
        <time>2018-10-12T07:42:00Z</time>
      </trkpt>
      <trkpt lat="48.37621" lon="2.60684">
        <ele>120.68</ele>
        <time>2018-10-12T07:42:01Z</time>
      </trkpt>
      <trkpt lat="48.37621" lon="2.60682">
        <ele>120.68</ele>
        <time>2018-10-12T07:42:02Z</time>
      </trkpt>
      <trkpt lat="48.3762" lon="2.6068">
        <ele>120.68</ele>
        <time>2018-10-12T07:42:03Z</time>
      </trkpt>
      <trkpt lat="48.37619" lon="2.60679">
        <ele>120.68</ele>
        <time>2018-10-12T07:42:04Z</time>
      </trkpt>
      <trkpt lat="48.37619" lon="2.60674">
        <ele>120.68</ele>
        <time>2018-10-12T07:42:07Z</time>
      </trkpt>
      <trkpt lat="48.37619" lon="2.60672">
        <ele>120.68</ele>
        <time>2018-10-12T07:42:08Z</time>
      </trkpt>
      <trkpt lat="48.37618" lon="2.6067">
        <ele>120.68</ele>
        <time>2018-10-12T07:42:09Z</time>
      </trkpt>
      <trkpt lat="48.37618" lon="2.60669">
        <ele>120.68</ele>
        <time>2018-10-12T07:42:10Z</time>
      </trkpt>
      <trkpt lat="48.37617" lon="2.60667">
        <ele>120.68</ele>
        <time>2018-10-12T07:42:11Z</time>
      </trkpt>
      <trkpt lat="48.37617" lon="2.60666">
        <ele>120.68</ele>
        <time>2018-10-12T07:42:12Z</time>
      </trkpt>
      <trkpt lat="48.37616" lon="2.60664">
        <ele>120.68</ele>
        <time>2018-10-12T07:42:13Z</time>
      </trkpt>
      <trkpt lat="48.37615" lon="2.60663">
        <ele>120.69</ele>
        <time>2018-10-12T07:42:14Z</time>
      </trkpt>
      <trkpt lat="48.37614" lon="2.60661">
        <ele>120.69</ele>
        <time>2018-10-12T07:42:15Z</time>
      </trkpt>
      <trkpt lat="48.37614" lon="2.6066">
        <ele>120.7</ele>
        <time>2018-10-12T07:42:16Z</time>
      </trkpt>
      <trkpt lat="48.37612" lon="2.60651">
        <ele>120.71</ele>
        <time>2018-10-12T07:42:22Z</time>
      </trkpt>
      <trkpt lat="48.37611" lon="2.60649">
        <ele>120.7</ele>
        <time>2018-10-12T07:42:23Z</time>
      </trkpt>
      <trkpt lat="48.37611" lon="2.60647">
        <ele>120.7</ele>
        <time>2018-10-12T07:42:24Z</time>
      </trkpt>
      <trkpt lat="48.37611" lon="2.60646">
        <ele>120.7</ele>
        <time>2018-10-12T07:42:25Z</time>
      </trkpt>
      <trkpt lat="48.3761" lon="2.60644">
        <ele>120.72</ele>
        <time>2018-10-12T07:42:26Z</time>
      </trkpt>
      <trkpt lat="48.3761" lon="2.60643">
        <ele>120.72</ele>
        <time>2018-10-12T07:42:27Z</time>
      </trkpt>
      <trkpt lat="48.37609" lon="2.60641">
        <ele>120.74</ele>
        <time>2018-10-12T07:42:28Z</time>
      </trkpt>
      <trkpt lat="48.37609" lon="2.60639">
        <ele>120.74</ele>
        <time>2018-10-12T07:42:29Z</time>
      </trkpt>
      <trkpt lat="48.37609" lon="2.60637">
        <ele>120.73</ele>
        <time>2018-10-12T07:42:30Z</time>
      </trkpt>
      <trkpt lat="48.37608" lon="2.60635">
        <ele>120.73</ele>
        <time>2018-10-12T07:42:31Z</time>
      </trkpt>
      <trkpt lat="48.37608" lon="2.60633">
        <ele>120.73</ele>
        <time>2018-10-12T07:42:32Z</time>
      </trkpt>
      <trkpt lat="48.37607" lon="2.60631">
        <ele>120.74</ele>
        <time>2018-10-12T07:42:33Z</time>
      </trkpt>
      <trkpt lat="48.37607" lon="2.6063">
        <ele>120.74</ele>
        <time>2018-10-12T07:42:34Z</time>
      </trkpt>
      <trkpt lat="48.37606" lon="2.60628">
        <ele>120.74</ele>
        <time>2018-10-12T07:42:35Z</time>
      </trkpt>
      <trkpt lat="48.37606" lon="2.60626">
        <ele>120.74</ele>
        <time>2018-10-12T07:42:36Z</time>
      </trkpt>
      <trkpt lat="48.37605" lon="2.60625">
        <ele>120.75</ele>
        <time>2018-10-12T07:42:37Z</time>
      </trkpt>
      <trkpt lat="48.37604" lon="2.60623">
        <ele>120.74</ele>
        <time>2018-10-12T07:42:38Z</time>
      </trkpt>
      <trkpt lat="48.37604" lon="2.60621">
        <ele>120.75</ele>
        <time>2018-10-12T07:42:39Z</time>
      </trkpt>
      <trkpt lat="48.37597" lon="2.60597">
        <ele>120.81</ele>
        <time>2018-10-12T07:42:54Z</time>
      </trkpt>
      <trkpt lat="48.37593" lon="2.60582">
        <ele>120.84</ele>
        <time>2018-10-12T07:43:03Z</time>
      </trkpt>
      <trkpt lat="48.37592" lon="2.60579">
        <ele>120.86</ele>
        <time>2018-10-12T07:43:05Z</time>
      </trkpt>
      <trkpt lat="48.37591" lon="2.60578">
        <ele>120.85</ele>
        <time>2018-10-12T07:43:06Z</time>
      </trkpt>
      <trkpt lat="48.37591" lon="2.60576">
        <ele>120.86</ele>
        <time>2018-10-12T07:43:07Z</time>
      </trkpt>
      <trkpt lat="48.37585" lon="2.60553">
        <ele>120.92</ele>
        <time>2018-10-12T07:43:22Z</time>
      </trkpt>
      <trkpt lat="48.37583" lon="2.60549">
        <ele>120.93</ele>
        <time>2018-10-12T07:43:24Z</time>
      </trkpt>
      <trkpt lat="48.37583" lon="2.60548">
        <ele>120.94</ele>
        <time>2018-10-12T07:43:25Z</time>
      </trkpt>
      <trkpt lat="48.37582" lon="2.60546">
        <ele>120.94</ele>
        <time>2018-10-12T07:43:26Z</time>
      </trkpt>
      <trkpt lat="48.37582" lon="2.60545">
        <ele>120.95</ele>
        <time>2018-10-12T07:43:27Z</time>
      </trkpt>
      <trkpt lat="48.37581" lon="2.60544">
        <ele>120.95</ele>
        <time>2018-10-12T07:43:28Z</time>
      </trkpt>
      <trkpt lat="48.37578" lon="2.60537">
        <ele>120.96</ele>
        <time>2018-10-12T07:43:32Z</time>
      </trkpt>
      <trkpt lat="48.37578" lon="2.60535">
        <ele>120.96</ele>
        <time>2018-10-12T07:43:33Z</time>
      </trkpt>
      <trkpt lat="48.37578" lon="2.60534">
        <ele>120.97</ele>
        <time>2018-10-12T07:43:34Z</time>
      </trkpt>
      <trkpt lat="48.37573" lon="2.60515">
        <ele>121</ele>
        <time>2018-10-12T07:43:46Z</time>
      </trkpt>
      <trkpt lat="48.37567" lon="2.60493">
        <ele>121.04</ele>
        <time>2018-10-12T07:44:00Z</time>
      </trkpt>
      <trkpt lat="48.37567" lon="2.60491">
        <ele>121.05</ele>
        <time>2018-10-12T07:44:01Z</time>
      </trkpt>
      <trkpt lat="48.3756" lon="2.60468">
        <ele>121.12</ele>
        <time>2018-10-12T07:44:15Z</time>
      </trkpt>
      <trkpt lat="48.37555" lon="2.60451">
        <ele>121.19</ele>
        <time>2018-10-12T07:44:25Z</time>
      </trkpt>
      <trkpt lat="48.37555" lon="2.60449">
        <ele>121.19</ele>
        <time>2018-10-12T07:44:26Z</time>
      </trkpt>
      <trkpt lat="48.37554" lon="2.60448">
        <ele>121.19</ele>
        <time>2018-10-12T07:44:27Z</time>
      </trkpt>
      <trkpt lat="48.37554" lon="2.60445">
        <ele>121.2</ele>
        <time>2018-10-12T07:44:28Z</time>
      </trkpt>
      <trkpt lat="48.37554" lon="2.60443">
        <ele>121.2</ele>
        <time>2018-10-12T07:44:29Z</time>
      </trkpt>
      <trkpt lat="48.37553" lon="2.60441">
        <ele>121.2</ele>
        <time>2018-10-12T07:44:30Z</time>
      </trkpt>
      <trkpt lat="48.37553" lon="2.60439">
        <ele>121.22</ele>
        <time>2018-10-12T07:44:31Z</time>
      </trkpt>
      <trkpt lat="48.37552" lon="2.60437">
        <ele>121.22</ele>
        <time>2018-10-12T07:44:32Z</time>
      </trkpt>
      <trkpt lat="48.37552" lon="2.60435">
        <ele>121.23</ele>
        <time>2018-10-12T07:44:33Z</time>
      </trkpt>
      <trkpt lat="48.3755" lon="2.60426">
        <ele>121.21</ele>
        <time>2018-10-12T07:44:38Z</time>
      </trkpt>
      <trkpt lat="48.3755" lon="2.60424">
        <ele>121.24</ele>
        <time>2018-10-12T07:44:39Z</time>
      </trkpt>
      <trkpt lat="48.37549" lon="2.60422">
        <ele>121.25</ele>
        <time>2018-10-12T07:44:40Z</time>
      </trkpt>
      <trkpt lat="48.37542" lon="2.604">
        <ele>120.46</ele>
        <time>2018-10-12T07:44:55Z</time>
      </trkpt>
      <trkpt lat="48.3754" lon="2.60385">
        <ele>120.52</ele>
        <time>2018-10-12T07:45:06Z</time>
      </trkpt>
      <trkpt lat="48.37537" lon="2.60383">
        <ele>120.54</ele>
        <time>2018-10-12T07:45:28Z</time>
      </trkpt>
      <trkpt lat="48.37534" lon="2.60382">
        <ele>120.51</ele>
        <time>2018-10-12T07:45:53Z</time>
      </trkpt>
      <trkpt lat="48.37528" lon="2.60374">
        <ele>120.55</ele>
        <time>2018-10-12T07:46:01Z</time>
      </trkpt>
      <trkpt lat="48.37519" lon="2.60376">
        <ele>119.71</ele>
        <time>2018-10-12T07:46:14Z</time>
      </trkpt>
      <trkpt lat="48.37518" lon="2.60376">
        <ele>122.81</ele>
        <time>2018-10-12T07:46:15Z</time>
      </trkpt>
      <trkpt lat="48.37518" lon="2.60376">
        <ele>122.81</ele>
        <time>2018-10-12T07:46:16Z</time>
      </trkpt>
      <trkpt lat="48.37518" lon="2.60377">
        <ele>119.92</ele>
        <time>2018-10-12T07:46:22Z</time>
      </trkpt>
      <trkpt lat="48.37519" lon="2.60378">
        <ele>122.26</ele>
        <time>2018-10-12T07:46:28Z</time>
      </trkpt>
      <trkpt lat="48.37521" lon="2.60362">
        <ele>122.26</ele>
        <time>2018-10-12T07:46:45Z</time>
      </trkpt>
      <trkpt lat="48.37513" lon="2.6035">
        <ele>119.1</ele>
        <time>2018-10-12T07:46:56Z</time>
      </trkpt>
      <trkpt lat="48.37506" lon="2.60338">
        <ele>121.93</ele>
        <time>2018-10-12T07:47:06Z</time>
      </trkpt>
      <trkpt lat="48.37504" lon="2.60332">
        <ele>121.94</ele>
        <time>2018-10-12T07:47:24Z</time>
      </trkpt>
      <trkpt lat="48.37496" lon="2.60324">
        <ele>121.93</ele>
        <time>2018-10-12T07:47:44Z</time>
      </trkpt>
      <trkpt lat="48.37503" lon="2.60337">
        <ele>121.95</ele>
        <time>2018-10-12T07:48:06Z</time>
      </trkpt>
      <trkpt lat="48.37506" lon="2.6034">
        <ele>121.92</ele>
        <time>2018-10-12T07:48:09Z</time>
      </trkpt>
      <trkpt lat="48.37508" lon="2.60341">
        <ele>121.93</ele>
        <time>2018-10-12T07:48:10Z</time>
      </trkpt>
      <trkpt lat="48.37509" lon="2.60343">
        <ele>121.92</ele>
        <time>2018-10-12T07:48:11Z</time>
      </trkpt>
      <trkpt lat="48.37528" lon="2.60362">
        <ele>121.88</ele>
        <time>2018-10-12T07:48:25Z</time>
      </trkpt>
      <trkpt lat="48.37527" lon="2.60369">
        <ele>121.89</ele>
        <time>2018-10-12T07:48:29Z</time>
      </trkpt>
      <trkpt lat="48.37513" lon="2.60379">
        <ele>121.84</ele>
        <time>2018-10-12T07:48:42Z</time>
      </trkpt>
      <trkpt lat="48.37511" lon="2.60381">
        <ele>119.03</ele>
        <time>2018-10-12T07:48:45Z</time>
      </trkpt>
      <trkpt lat="48.37507" lon="2.60382">
        <ele>121.94</ele>
        <time>2018-10-12T07:48:49Z</time>
      </trkpt>
      <trkpt lat="48.37487" lon="2.60393">
        <ele>121.81</ele>
        <time>2018-10-12T07:49:10Z</time>
      </trkpt>
      <trkpt lat="48.37472" lon="2.60399">
        <ele>121.72</ele>
        <time>2018-10-12T07:49:27Z</time>
      </trkpt>
      <trkpt lat="48.3746" lon="2.60403">
        <ele>121.58</ele>
        <time>2018-10-12T07:49:49Z</time>
      </trkpt>
      <trkpt lat="48.37475" lon="2.60392">
        <ele>121.58</ele>
        <time>2018-10-12T07:50:09Z</time>
      </trkpt>
      <trkpt lat="48.375" lon="2.60381">
        <ele>121.47</ele>
        <time>2018-10-12T07:50:34Z</time>
      </trkpt>
      <trkpt lat="48.37514" lon="2.60373">
        <ele>121.43</ele>
        <time>2018-10-12T07:50:44Z</time>
      </trkpt>
      <trkpt lat="48.3752" lon="2.60368">
        <ele>121.42</ele>
        <time>2018-10-12T07:50:47Z</time>
      </trkpt>
      <trkpt lat="48.37521" lon="2.6036">
        <ele>121.36</ele>
        <time>2018-10-12T07:50:53Z</time>
      </trkpt>
      <trkpt lat="48.3751" lon="2.60345">
        <ele>121.26</ele>
        <time>2018-10-12T07:51:07Z</time>
      </trkpt>
      <trkpt lat="48.37506" lon="2.6034">
        <ele>121.23</ele>
        <time>2018-10-12T07:51:12Z</time>
      </trkpt>
      <trkpt lat="48.37495" lon="2.60325">
        <ele>121.14</ele>
        <time>2018-10-12T07:51:27Z</time>
      </trkpt>
      <trkpt lat="48.37484" lon="2.60308">
        <ele>121.06</ele>
        <time>2018-10-12T07:51:42Z</time>
      </trkpt>
      <trkpt lat="48.3747" lon="2.60288">
        <ele>121</ele>
        <time>2018-10-12T07:51:58Z</time>
      </trkpt>
      <trkpt lat="48.37468" lon="2.60284">
        <ele>121</ele>
        <time>2018-10-12T07:52:00Z</time>
      </trkpt>
      <trkpt lat="48.37461" lon="2.60273">
        <ele>120.97</ele>
        <time>2018-10-12T07:52:09Z</time>
      </trkpt>
      <trkpt lat="48.37451" lon="2.60257">
        <ele>120.96</ele>
        <time>2018-10-12T07:52:20Z</time>
      </trkpt>
      <trkpt lat="48.37449" lon="2.60252">
        <ele>120.96</ele>
        <time>2018-10-12T07:52:23Z</time>
      </trkpt>
      <trkpt lat="48.37443" lon="2.60243">
        <ele>120.95</ele>
        <time>2018-10-12T07:52:36Z</time>
      </trkpt>
      <trkpt lat="48.37435" lon="2.60237">
        <ele>120.96</ele>
        <time>2018-10-12T07:52:43Z</time>
      </trkpt>
      <trkpt lat="48.37416" lon="2.60213">
        <ele>120.97</ele>
        <time>2018-10-12T07:53:03Z</time>
      </trkpt>
      <trkpt lat="48.37397" lon="2.60198">
        <ele>120.95</ele>
        <time>2018-10-12T07:53:24Z</time>
      </trkpt>
      <trkpt lat="48.3739" lon="2.60197">
        <ele>120.98</ele>
        <time>2018-10-12T07:53:44Z</time>
      </trkpt>
      <trkpt lat="48.37391" lon="2.60196">
        <ele>120.99</ele>
        <time>2018-10-12T07:54:08Z</time>
      </trkpt>
      <trkpt lat="48.37383" lon="2.60191">
        <ele>120.99</ele>
        <time>2018-10-12T07:54:28Z</time>
      </trkpt>
      <trkpt lat="48.37368" lon="2.60181">
        <ele>121</ele>
        <time>2018-10-12T07:54:45Z</time>
      </trkpt>
      <trkpt lat="48.37345" lon="2.60164">
        <ele>120.99</ele>
        <time>2018-10-12T07:55:07Z</time>
      </trkpt>
      <trkpt lat="48.37329" lon="2.60145">
        <ele>121</ele>
        <time>2018-10-12T07:55:26Z</time>
      </trkpt>
      <trkpt lat="48.37328" lon="2.60141">
        <ele>122.51</ele>
        <time>2018-10-12T07:55:29Z</time>
      </trkpt>
      <trkpt lat="48.37322" lon="2.60135">
        <ele>122.47</ele>
        <time>2018-10-12T07:55:50Z</time>
      </trkpt>
      <trkpt lat="48.37323" lon="2.60133">
        <ele>119.61</ele>
        <time>2018-10-12T07:55:55Z</time>
      </trkpt>
      <trkpt lat="48.37315" lon="2.60118">
        <ele>119.34</ele>
        <time>2018-10-12T07:56:14Z</time>
      </trkpt>
      <trkpt lat="48.37302" lon="2.60105">
        <ele>119.3</ele>
        <time>2018-10-12T07:56:27Z</time>
      </trkpt>
      <trkpt lat="48.37296" lon="2.601">
        <ele>119.27</ele>
        <time>2018-10-12T07:56:32Z</time>
      </trkpt>
      <trkpt lat="48.37294" lon="2.60098">
        <ele>118.49</ele>
        <time>2018-10-12T07:56:35Z</time>
      </trkpt>
      <trkpt lat="48.37291" lon="2.60096">
        <ele>118.48</ele>
        <time>2018-10-12T07:56:38Z</time>
      </trkpt>
      <trkpt lat="48.3728" lon="2.60091">
        <ele>118.46</ele>
        <time>2018-10-12T07:56:48Z</time>
      </trkpt>
      <trkpt lat="48.37269" lon="2.60086">
        <ele>118.42</ele>
        <time>2018-10-12T07:57:01Z</time>
      </trkpt>
      <trkpt lat="48.37255" lon="2.6008">
        <ele>117.66</ele>
        <time>2018-10-12T07:57:18Z</time>
      </trkpt>
      <trkpt lat="48.37242" lon="2.60071">
        <ele>117.62</ele>
        <time>2018-10-12T07:57:36Z</time>
      </trkpt>
      <trkpt lat="48.37221" lon="2.60067">
        <ele>117.61</ele>
        <time>2018-10-12T07:57:52Z</time>
      </trkpt>
      <trkpt lat="48.37216" lon="2.60067">
        <ele>117.6</ele>
        <time>2018-10-12T07:57:55Z</time>
      </trkpt>
      <trkpt lat="48.37205" lon="2.60056">
        <ele>117.52</ele>
        <time>2018-10-12T07:58:09Z</time>
      </trkpt>
      <trkpt lat="48.37189" lon="2.60037">
        <ele>117.47</ele>
        <time>2018-10-12T07:58:28Z</time>
      </trkpt>
      <trkpt lat="48.37169" lon="2.60022">
        <ele>116.43</ele>
        <time>2018-10-12T07:58:48Z</time>
      </trkpt>
      <trkpt lat="48.3716" lon="2.60018">
        <ele>116.38</ele>
        <time>2018-10-12T07:59:01Z</time>
      </trkpt>
      <trkpt lat="48.37157" lon="2.60009">
        <ele>116.29</ele>
        <time>2018-10-12T07:59:24Z</time>
      </trkpt>
      <trkpt lat="48.37157" lon="2.59989">
        <ele>115.35</ele>
        <time>2018-10-12T07:59:41Z</time>
      </trkpt>
      <trkpt lat="48.37146" lon="2.5996">
        <ele>115.33</ele>
        <time>2018-10-12T08:00:02Z</time>
      </trkpt>
      <trkpt lat="48.37144" lon="2.5995">
        <ele>115.31</ele>
        <time>2018-10-12T08:00:08Z</time>
      </trkpt>
      <trkpt lat="48.37136" lon="2.59929">
        <ele>115.26</ele>
        <time>2018-10-12T08:00:22Z</time>
      </trkpt>
      <trkpt lat="48.37127" lon="2.59907">
        <ele>115.08</ele>
        <time>2018-10-12T08:00:37Z</time>
      </trkpt>
      <trkpt lat="48.37119" lon="2.59879">
        <ele>114.96</ele>
        <time>2018-10-12T08:00:55Z</time>
      </trkpt>
      <trkpt lat="48.37112" lon="2.59862">
        <ele>114.75</ele>
        <time>2018-10-12T08:01:16Z</time>
      </trkpt>
      <trkpt lat="48.37108" lon="2.59855">
        <ele>116.09</ele>
        <time>2018-10-12T08:01:29Z</time>
      </trkpt>
      <trkpt lat="48.37106" lon="2.59853">
        <ele>113.59</ele>
        <time>2018-10-12T08:01:31Z</time>
      </trkpt>
      <trkpt lat="48.37088" lon="2.5983">
        <ele>113.35</ele>
        <time>2018-10-12T08:01:50Z</time>
      </trkpt>
      <trkpt lat="48.37076" lon="2.59798">
        <ele>113.2</ele>
        <time>2018-10-12T08:02:10Z</time>
      </trkpt>
      <trkpt lat="48.37076" lon="2.59777">
        <ele>113.11</ele>
        <time>2018-10-12T08:02:22Z</time>
      </trkpt>
      <trkpt lat="48.37076" lon="2.59769">
        <ele>113.08</ele>
        <time>2018-10-12T08:02:26Z</time>
      </trkpt>
      <trkpt lat="48.37078" lon="2.59766">
        <ele>113.07</ele>
        <time>2018-10-12T08:02:28Z</time>
      </trkpt>
      <trkpt lat="48.3708" lon="2.59752">
        <ele>113.07</ele>
        <time>2018-10-12T08:02:38Z</time>
      </trkpt>
      <trkpt lat="48.37081" lon="2.59745">
        <ele>113.05</ele>
        <time>2018-10-12T08:02:42Z</time>
      </trkpt>
      <trkpt lat="48.37081" lon="2.5974">
        <ele>113.06</ele>
        <time>2018-10-12T08:02:45Z</time>
      </trkpt>
      <trkpt lat="48.37082" lon="2.59725">
        <ele>113.05</ele>
        <time>2018-10-12T08:02:54Z</time>
      </trkpt>
      <trkpt lat="48.37081" lon="2.59719">
        <ele>113.05</ele>
        <time>2018-10-12T08:02:57Z</time>
      </trkpt>
      <trkpt lat="48.37081" lon="2.59707">
        <ele>113.06</ele>
        <time>2018-10-12T08:03:03Z</time>
      </trkpt>
      <trkpt lat="48.3708" lon="2.59704">
        <ele>113.06</ele>
        <time>2018-10-12T08:03:05Z</time>
      </trkpt>
      <trkpt lat="48.37083" lon="2.59674">
        <ele>113.09</ele>
        <time>2018-10-12T08:03:20Z</time>
      </trkpt>
      <trkpt lat="48.37075" lon="2.59648">
        <ele>112.02</ele>
        <time>2018-10-12T08:03:39Z</time>
      </trkpt>
      <trkpt lat="48.37078" lon="2.59643">
        <ele>112.02</ele>
        <time>2018-10-12T08:03:43Z</time>
      </trkpt>
      <trkpt lat="48.37086" lon="2.5963">
        <ele>111.2</ele>
        <time>2018-10-12T08:03:57Z</time>
      </trkpt>
      <trkpt lat="48.37093" lon="2.59616">
        <ele>111.19</ele>
        <time>2018-10-12T08:04:07Z</time>
      </trkpt>
      <trkpt lat="48.37093" lon="2.59603">
        <ele>110.4</ele>
        <time>2018-10-12T08:04:23Z</time>
      </trkpt>
      <trkpt lat="48.3709" lon="2.596">
        <ele>109.12</ele>
        <time>2018-10-12T08:04:40Z</time>
      </trkpt>
      <trkpt lat="48.3709" lon="2.596">
        <ele>112.63</ele>
        <time>2018-10-12T08:04:41Z</time>
      </trkpt>
      <trkpt lat="48.3709" lon="2.59599">
        <ele>112.63</ele>
        <time>2018-10-12T08:04:42Z</time>
      </trkpt>
      <trkpt lat="48.37089" lon="2.59592">
        <ele>110.28</ele>
        <time>2018-10-12T08:04:47Z</time>
      </trkpt>
      <trkpt lat="48.37087" lon="2.59562">
        <ele>110.27</ele>
        <time>2018-10-12T08:05:08Z</time>
      </trkpt>
      <trkpt lat="48.3708" lon="2.59541">
        <ele>110.26</ele>
        <time>2018-10-12T08:05:21Z</time>
      </trkpt>
      <trkpt lat="48.37072" lon="2.5952">
        <ele>110.28</ele>
        <time>2018-10-12T08:05:35Z</time>
      </trkpt>
      <trkpt lat="48.37068" lon="2.59493">
        <ele>110.31</ele>
        <time>2018-10-12T08:05:52Z</time>
      </trkpt>
      <trkpt lat="48.37075" lon="2.59477">
        <ele>110.31</ele>
        <time>2018-10-12T08:06:09Z</time>
      </trkpt>
      <trkpt lat="48.37075" lon="2.59459">
        <ele>110.33</ele>
        <time>2018-10-12T08:06:20Z</time>
      </trkpt>
      <trkpt lat="48.37074" lon="2.59456">
        <ele>110.33</ele>
        <time>2018-10-12T08:06:22Z</time>
      </trkpt>
      <trkpt lat="48.37074" lon="2.59449">
        <ele>110.34</ele>
        <time>2018-10-12T08:06:27Z</time>
      </trkpt>
      <trkpt lat="48.37072" lon="2.59429">
        <ele>110.34</ele>
        <time>2018-10-12T08:06:41Z</time>
      </trkpt>
      <trkpt lat="48.37072" lon="2.59427">
        <ele>112.59</ele>
        <time>2018-10-12T08:06:46Z</time>
      </trkpt>
      <trkpt lat="48.3707" lon="2.59419">
        <ele>112.54</ele>
        <time>2018-10-12T08:07:04Z</time>
      </trkpt>
      <trkpt lat="48.37071" lon="2.59398">
        <ele>113.37</ele>
        <time>2018-10-12T08:07:20Z</time>
      </trkpt>
      <trkpt lat="48.37069" lon="2.59394">
        <ele>114.19</ele>
        <time>2018-10-12T08:07:24Z</time>
      </trkpt>
      <trkpt lat="48.37067" lon="2.59375">
        <ele>114.95</ele>
        <time>2018-10-12T08:07:41Z</time>
      </trkpt>
      <trkpt lat="48.37064" lon="2.59366">
        <ele>114.99</ele>
        <time>2018-10-12T08:07:49Z</time>
      </trkpt>
      <trkpt lat="48.37049" lon="2.59359">
        <ele>116.75</ele>
        <time>2018-10-12T08:08:06Z</time>
      </trkpt>
      <trkpt lat="48.37043" lon="2.59358">
        <ele>116.73</ele>
        <time>2018-10-12T08:08:25Z</time>
      </trkpt>
      <trkpt lat="48.37033" lon="2.59351">
        <ele>116.75</ele>
        <time>2018-10-12T08:08:41Z</time>
      </trkpt>
      <trkpt lat="48.37029" lon="2.59343">
        <ele>116.76</ele>
        <time>2018-10-12T08:08:54Z</time>
      </trkpt>
      <trkpt lat="48.37027" lon="2.59344">
        <ele>115.73</ele>
        <time>2018-10-12T08:09:18Z</time>
      </trkpt>
      <trkpt lat="48.37018" lon="2.5933">
        <ele>115.73</ele>
        <time>2018-10-12T08:09:42Z</time>
      </trkpt>
      <trkpt lat="48.37001" lon="2.59309">
        <ele>115.75</ele>
        <time>2018-10-12T08:10:02Z</time>
      </trkpt>
      <trkpt lat="48.36993" lon="2.59294">
        <ele>115.7</ele>
        <time>2018-10-12T08:10:17Z</time>
      </trkpt>
      <trkpt lat="48.36987" lon="2.59279">
        <ele>114.68</ele>
        <time>2018-10-12T08:10:30Z</time>
      </trkpt>
      <trkpt lat="48.36989" lon="2.59273">
        <ele>114.65</ele>
        <time>2018-10-12T08:10:34Z</time>
      </trkpt>
      <trkpt lat="48.36991" lon="2.59254">
        <ele>112.81</ele>
        <time>2018-10-12T08:10:47Z</time>
      </trkpt>
      <trkpt lat="48.3699" lon="2.5925">
        <ele>112.8</ele>
        <time>2018-10-12T08:10:50Z</time>
      </trkpt>
      <trkpt lat="48.36988" lon="2.59245">
        <ele>112.79</ele>
        <time>2018-10-12T08:10:53Z</time>
      </trkpt>
      <trkpt lat="48.36985" lon="2.59237">
        <ele>112</ele>
        <time>2018-10-12T08:10:58Z</time>
      </trkpt>
      <trkpt lat="48.36983" lon="2.59231">
        <ele>112.11</ele>
        <time>2018-10-12T08:11:02Z</time>
      </trkpt>
      <trkpt lat="48.36976" lon="2.59216">
        <ele>110.55</ele>
        <time>2018-10-12T08:11:13Z</time>
      </trkpt>
      <trkpt lat="48.36974" lon="2.59213">
        <ele>112.84</ele>
        <time>2018-10-12T08:11:23Z</time>
      </trkpt>
      <trkpt lat="48.3697" lon="2.59206">
        <ele>110.57</ele>
        <time>2018-10-12T08:11:54Z</time>
      </trkpt>
      <trkpt lat="48.36969" lon="2.59192">
        <ele>110.65</ele>
        <time>2018-10-12T08:12:09Z</time>
      </trkpt>
      <trkpt lat="48.36971" lon="2.59187">
        <ele>110.74</ele>
        <time>2018-10-12T08:12:30Z</time>
      </trkpt>
      <trkpt lat="48.36976" lon="2.59191">
        <ele>110.74</ele>
        <time>2018-10-12T08:12:58Z</time>
      </trkpt>
      <trkpt lat="48.36971" lon="2.59183">
        <ele>110.78</ele>
        <time>2018-10-12T08:13:13Z</time>
      </trkpt>
      <trkpt lat="48.36968" lon="2.59185">
        <ele>111.11</ele>
        <time>2018-10-12T08:13:40Z</time>
      </trkpt>
      <trkpt lat="48.36968" lon="2.59185">
        <ele>111.1</ele>
        <time>2018-10-12T08:13:41Z</time>
      </trkpt>
      <trkpt lat="48.36968" lon="2.59185">
        <ele>113.93</ele>
        <time>2018-10-12T08:13:43Z</time>
      </trkpt>
      <trkpt lat="48.36967" lon="2.59184">
        <ele>111.24</ele>
        <time>2018-10-12T08:13:45Z</time>
      </trkpt>
      <trkpt lat="48.36967" lon="2.59182">
        <ele>113.94</ele>
        <time>2018-10-12T08:13:51Z</time>
      </trkpt>
      <trkpt lat="48.36957" lon="2.59174">
        <ele>113.94</ele>
        <time>2018-10-12T08:14:12Z</time>
      </trkpt>
      <trkpt lat="48.3695" lon="2.59168">
        <ele>113.93</ele>
        <time>2018-10-12T08:14:30Z</time>
      </trkpt>
      <trkpt lat="48.36945" lon="2.59165">
        <ele>111.2</ele>
        <time>2018-10-12T08:14:44Z</time>
      </trkpt>
      <trkpt lat="48.36936" lon="2.59163">
        <ele>109.52</ele>
        <time>2018-10-12T08:15:02Z</time>
      </trkpt>
      <trkpt lat="48.36924" lon="2.59169">
        <ele>108.76</ele>
        <time>2018-10-12T08:15:20Z</time>
      </trkpt>
      <trkpt lat="48.36909" lon="2.5918">
        <ele>107.91</ele>
        <time>2018-10-12T08:15:38Z</time>
      </trkpt>
      <trkpt lat="48.36893" lon="2.59172">
        <ele>108</ele>
        <time>2018-10-12T08:15:51Z</time>
      </trkpt>
      <trkpt lat="48.36893" lon="2.59167">
        <ele>108.02</ele>
        <time>2018-10-12T08:15:54Z</time>
      </trkpt>
      <trkpt lat="48.36899" lon="2.59163">
        <ele>108.05</ele>
        <time>2018-10-12T08:16:05Z</time>
      </trkpt>
      <trkpt lat="48.36913" lon="2.59147">
        <ele>108.05</ele>
        <time>2018-10-12T08:16:23Z</time>
      </trkpt>
      <trkpt lat="48.36925" lon="2.59133">
        <ele>108.06</ele>
        <time>2018-10-12T08:16:43Z</time>
      </trkpt>
      <trkpt lat="48.36929" lon="2.59127">
        <ele>108.14</ele>
        <time>2018-10-12T08:17:10Z</time>
      </trkpt>
      <trkpt lat="48.36935" lon="2.59122">
        <ele>108.17</ele>
        <time>2018-10-12T08:17:17Z</time>
      </trkpt>
      <trkpt lat="48.3694" lon="2.5912">
        <ele>110.52</ele>
        <time>2018-10-12T08:17:24Z</time>
      </trkpt>
      <trkpt lat="48.36953" lon="2.59104">
        <ele>110.6</ele>
        <time>2018-10-12T08:17:43Z</time>
      </trkpt>
      <trkpt lat="48.36963" lon="2.59093">
        <ele>110.61</ele>
        <time>2018-10-12T08:17:54Z</time>
      </trkpt>
      <trkpt lat="48.36975" lon="2.59084">
        <ele>110.64</ele>
        <time>2018-10-12T08:18:09Z</time>
      </trkpt>
      <trkpt lat="48.36984" lon="2.59075">
        <ele>110.72</ele>
        <time>2018-10-12T08:18:26Z</time>
      </trkpt>
      <trkpt lat="48.36987" lon="2.59071">
        <ele>110.73</ele>
        <time>2018-10-12T08:18:30Z</time>
      </trkpt>
      <trkpt lat="48.36991" lon="2.59056">
        <ele>110.77</ele>
        <time>2018-10-12T08:18:39Z</time>
      </trkpt>
      <trkpt lat="48.36994" lon="2.5905">
        <ele>110.79</ele>
        <time>2018-10-12T08:18:42Z</time>
      </trkpt>
      <trkpt lat="48.36999" lon="2.59028">
        <ele>110.86</ele>
        <time>2018-10-12T08:18:55Z</time>
      </trkpt>
      <trkpt lat="48.36998" lon="2.5902">
        <ele>110.88</ele>
        <time>2018-10-12T08:19:01Z</time>
      </trkpt>
      <trkpt lat="48.36997" lon="2.59014">
        <ele>110.9</ele>
        <time>2018-10-12T08:19:05Z</time>
      </trkpt>
      <trkpt lat="48.36998" lon="2.59005">
        <ele>110.88</ele>
        <time>2018-10-12T08:19:11Z</time>
      </trkpt>
      <trkpt lat="48.36998" lon="2.58998">
        <ele>110.92</ele>
        <time>2018-10-12T08:19:15Z</time>
      </trkpt>
      <trkpt lat="48.36997" lon="2.58991">
        <ele>110.98</ele>
        <time>2018-10-12T08:19:32Z</time>
      </trkpt>
      <trkpt lat="48.36994" lon="2.5897">
        <ele>111.03</ele>
        <time>2018-10-12T08:19:46Z</time>
      </trkpt>
      <trkpt lat="48.36994" lon="2.58964">
        <ele>111.04</ele>
        <time>2018-10-12T08:19:50Z</time>
      </trkpt>
      <trkpt lat="48.36995" lon="2.58957">
        <ele>111.05</ele>
        <time>2018-10-12T08:19:54Z</time>
      </trkpt>
      <trkpt lat="48.36999" lon="2.58951">
        <ele>111.09</ele>
        <time>2018-10-12T08:20:08Z</time>
      </trkpt>
      <trkpt lat="48.36998" lon="2.58951">
        <ele>111.12</ele>
        <time>2018-10-12T08:20:30Z</time>
      </trkpt>
      <trkpt lat="48.36997" lon="2.58948">
        <ele>111.11</ele>
        <time>2018-10-12T08:20:32Z</time>
      </trkpt>
      <trkpt lat="48.36999" lon="2.58929">
        <ele>111.14</ele>
        <time>2018-10-12T08:20:50Z</time>
      </trkpt>
      <trkpt lat="48.36999" lon="2.58913">
        <ele>108.35</ele>
        <time>2018-10-12T08:21:01Z</time>
      </trkpt>
      <trkpt lat="48.36998" lon="2.58892">
        <ele>108.35</ele>
        <time>2018-10-12T08:21:19Z</time>
      </trkpt>
      <trkpt lat="48.36996" lon="2.58886">
        <ele>108.34</ele>
        <time>2018-10-12T08:21:22Z</time>
      </trkpt>
      <trkpt lat="48.36996" lon="2.58865">
        <ele>108.39</ele>
        <time>2018-10-12T08:21:36Z</time>
      </trkpt>
      <trkpt lat="48.37" lon="2.58842">
        <ele>108.39</ele>
        <time>2018-10-12T08:21:51Z</time>
      </trkpt>
      <trkpt lat="48.37001" lon="2.58832">
        <ele>108.38</ele>
        <time>2018-10-12T08:21:57Z</time>
      </trkpt>
      <trkpt lat="48.36999" lon="2.58816">
        <ele>108.39</ele>
        <time>2018-10-12T08:22:06Z</time>
      </trkpt>
      <trkpt lat="48.36998" lon="2.58809">
        <ele>108.39</ele>
        <time>2018-10-12T08:22:10Z</time>
      </trkpt>
      <trkpt lat="48.37" lon="2.58787">
        <ele>107.61</ele>
        <time>2018-10-12T08:22:22Z</time>
      </trkpt>
      <trkpt lat="48.37" lon="2.58785">
        <ele>107.6</ele>
        <time>2018-10-12T08:22:23Z</time>
      </trkpt>
      <trkpt lat="48.37001" lon="2.58771">
        <ele>107.63</ele>
        <time>2018-10-12T08:22:31Z</time>
      </trkpt>
      <trkpt lat="48.37" lon="2.58751">
        <ele>107.63</ele>
        <time>2018-10-12T08:22:42Z</time>
      </trkpt>
      <trkpt lat="48.37002" lon="2.58741">
        <ele>107.64</ele>
        <time>2018-10-12T08:22:48Z</time>
      </trkpt>
      <trkpt lat="48.37002" lon="2.58713">
        <ele>107.68</ele>
        <time>2018-10-12T08:23:05Z</time>
      </trkpt>
      <trkpt lat="48.37001" lon="2.5869">
        <ele>107.69</ele>
        <time>2018-10-12T08:23:19Z</time>
      </trkpt>
      <trkpt lat="48.36999" lon="2.58661">
        <ele>106.89</ele>
        <time>2018-10-12T08:23:36Z</time>
      </trkpt>
      <trkpt lat="48.37" lon="2.5863">
        <ele>106.9</ele>
        <time>2018-10-12T08:23:51Z</time>
      </trkpt>
      <trkpt lat="48.36999" lon="2.58624">
        <ele>106.9</ele>
        <time>2018-10-12T08:23:54Z</time>
      </trkpt>
      <trkpt lat="48.37" lon="2.5862">
        <ele>106.93</ele>
        <time>2018-10-12T08:23:56Z</time>
      </trkpt>
      <trkpt lat="48.37" lon="2.58616">
        <ele>106.93</ele>
        <time>2018-10-12T08:23:58Z</time>
      </trkpt>
      <trkpt lat="48.37" lon="2.58588">
        <ele>107.76</ele>
        <time>2018-10-12T08:24:12Z</time>
      </trkpt>
      <trkpt lat="48.36998" lon="2.58567">
        <ele>107.74</ele>
        <time>2018-10-12T08:24:25Z</time>
      </trkpt>
      <trkpt lat="48.36999" lon="2.58564">
        <ele>107.73</ele>
        <time>2018-10-12T08:24:27Z</time>
      </trkpt>
      <trkpt lat="48.37001" lon="2.58545">
        <ele>107.72</ele>
        <time>2018-10-12T08:24:37Z</time>
      </trkpt>
      <trkpt lat="48.37003" lon="2.58529">
        <ele>107.68</ele>
        <time>2018-10-12T08:24:53Z</time>
      </trkpt>
      <trkpt lat="48.37001" lon="2.58522">
        <ele>107.65</ele>
        <time>2018-10-12T08:25:00Z</time>
      </trkpt>
      <trkpt lat="48.36996" lon="2.58509">
        <ele>107.62</ele>
        <time>2018-10-12T08:25:13Z</time>
      </trkpt>
      <trkpt lat="48.36995" lon="2.58487">
        <ele>107.55</ele>
        <time>2018-10-12T08:25:25Z</time>
      </trkpt>
      <trkpt lat="48.37008" lon="2.58457">
        <ele>105.12</ele>
        <time>2018-10-12T08:25:44Z</time>
      </trkpt>
      <trkpt lat="48.37017" lon="2.58443">
        <ele>105.07</ele>
        <time>2018-10-12T08:26:01Z</time>
      </trkpt>
      <trkpt lat="48.37023" lon="2.58434">
        <ele>105.01</ele>
        <time>2018-10-12T08:26:09Z</time>
      </trkpt>
      <trkpt lat="48.3703" lon="2.58411">
        <ele>104.95</ele>
        <time>2018-10-12T08:26:24Z</time>
      </trkpt>
      <trkpt lat="48.37032" lon="2.58395">
        <ele>104.93</ele>
        <time>2018-10-12T08:26:37Z</time>
      </trkpt>
      <trkpt lat="48.37031" lon="2.58366">
        <ele>104.83</ele>
        <time>2018-10-12T08:26:54Z</time>
      </trkpt>
      <trkpt lat="48.37035" lon="2.58343">
        <ele>104.8</ele>
        <time>2018-10-12T08:27:09Z</time>
      </trkpt>
      <trkpt lat="48.37037" lon="2.58336">
        <ele>104.77</ele>
        <time>2018-10-12T08:27:18Z</time>
      </trkpt>
      <trkpt lat="48.37038" lon="2.58301">
        <ele>104.74</ele>
        <time>2018-10-12T08:27:37Z</time>
      </trkpt>
      <trkpt lat="48.37028" lon="2.58279">
        <ele>104.75</ele>
        <time>2018-10-12T08:27:57Z</time>
      </trkpt>
      <trkpt lat="48.37018" lon="2.58276">
        <ele>104.73</ele>
        <time>2018-10-12T08:28:06Z</time>
      </trkpt>
      <trkpt lat="48.37014" lon="2.58275">
        <ele>99.72</ele>
        <time>2018-10-12T08:28:12Z</time>
      </trkpt>
      <trkpt lat="48.37014" lon="2.58275">
        <ele>102.15</ele>
        <time>2018-10-12T08:28:13Z</time>
      </trkpt>
      <trkpt lat="48.37014" lon="2.58275">
        <ele>105.43</ele>
        <time>2018-10-12T08:28:14Z</time>
      </trkpt>
      <trkpt lat="48.37014" lon="2.58276">
        <ele>106.96</ele>
        <time>2018-10-12T08:28:16Z</time>
      </trkpt>
      <trkpt lat="48.37012" lon="2.58278">
        <ele>106.91</ele>
        <time>2018-10-12T08:28:33Z</time>
      </trkpt>
      <trkpt lat="48.37001" lon="2.58271">
        <ele>104.53</ele>
        <time>2018-10-12T08:28:52Z</time>
      </trkpt>
      <trkpt lat="48.36995" lon="2.58268">
        <ele>104.6</ele>
        <time>2018-10-12T08:29:14Z</time>
      </trkpt>
      <trkpt lat="48.36992" lon="2.58265">
        <ele>104.64</ele>
        <time>2018-10-12T08:29:35Z</time>
      </trkpt>
      <trkpt lat="48.36989" lon="2.58265">
        <ele>104.68</ele>
        <time>2018-10-12T08:30:05Z</time>
      </trkpt>
      <trkpt lat="48.36987" lon="2.58264">
        <ele>104.69</ele>
        <time>2018-10-12T08:30:08Z</time>
      </trkpt>
      <trkpt lat="48.36982" lon="2.5826">
        <ele>104.7</ele>
        <time>2018-10-12T08:30:13Z</time>
      </trkpt>
      <trkpt lat="48.3698" lon="2.58259">
        <ele>104.7</ele>
        <time>2018-10-12T08:30:15Z</time>
      </trkpt>
      <trkpt lat="48.36979" lon="2.58257">
        <ele>104.71</ele>
        <time>2018-10-12T08:30:17Z</time>
      </trkpt>
      <trkpt lat="48.36967" lon="2.58249">
        <ele>104.73</ele>
        <time>2018-10-12T08:30:28Z</time>
      </trkpt>
      <trkpt lat="48.36953" lon="2.58238">
        <ele>104.77</ele>
        <time>2018-10-12T08:30:43Z</time>
      </trkpt>
      <trkpt lat="48.36948" lon="2.58236">
        <ele>104.79</ele>
        <time>2018-10-12T08:30:48Z</time>
      </trkpt>
      <trkpt lat="48.36933" lon="2.58229">
        <ele>104.87</ele>
        <time>2018-10-12T08:31:06Z</time>
      </trkpt>
      <trkpt lat="48.36927" lon="2.58223">
        <ele>107.36</ele>
        <time>2018-10-12T08:31:23Z</time>
      </trkpt>
      <trkpt lat="48.36916" lon="2.58204">
        <ele>107.38</ele>
        <time>2018-10-12T08:31:43Z</time>
      </trkpt>
      <trkpt lat="48.36908" lon="2.58173">
        <ele>107.4</ele>
        <time>2018-10-12T08:32:02Z</time>
      </trkpt>
      <trkpt lat="48.36908" lon="2.58171">
        <ele>107.42</ele>
        <time>2018-10-12T08:32:03Z</time>
      </trkpt>
      <trkpt lat="48.36911" lon="2.58162">
        <ele>107.44</ele>
        <time>2018-10-12T08:32:28Z</time>
      </trkpt>
      <trkpt lat="48.36914" lon="2.58158">
        <ele>104.25</ele>
        <time>2018-10-12T08:32:35Z</time>
      </trkpt>
      <trkpt lat="48.36917" lon="2.58141">
        <ele>104.58</ele>
        <time>2018-10-12T08:32:53Z</time>
      </trkpt>
      <trkpt lat="48.36922" lon="2.58129">
        <ele>104.57</ele>
        <time>2018-10-12T08:33:08Z</time>
      </trkpt>
      <trkpt lat="48.36926" lon="2.58108">
        <ele>104.56</ele>
        <time>2018-10-12T08:33:26Z</time>
      </trkpt>
      <trkpt lat="48.36931" lon="2.58085">
        <ele>104.61</ele>
        <time>2018-10-12T08:33:42Z</time>
      </trkpt>
      <trkpt lat="48.36936" lon="2.58064">
        <ele>104.62</ele>
        <time>2018-10-12T08:33:58Z</time>
      </trkpt>
      <trkpt lat="48.36935" lon="2.58055">
        <ele>104.63</ele>
        <time>2018-10-12T08:34:28Z</time>
      </trkpt>
      <trkpt lat="48.3694" lon="2.58027">
        <ele>104.64</ele>
        <time>2018-10-12T08:34:46Z</time>
      </trkpt>
      <trkpt lat="48.36941" lon="2.58023">
        <ele>104.65</ele>
        <time>2018-10-12T08:34:49Z</time>
      </trkpt>
      <trkpt lat="48.3694" lon="2.58018">
        <ele>104.65</ele>
        <time>2018-10-12T08:34:52Z</time>
      </trkpt>
      <trkpt lat="48.36941" lon="2.57996">
        <ele>104.66</ele>
        <time>2018-10-12T08:35:04Z</time>
      </trkpt>
      <trkpt lat="48.36941" lon="2.57991">
        <ele>104.66</ele>
        <time>2018-10-12T08:35:07Z</time>
      </trkpt>
      <trkpt lat="48.36944" lon="2.57972">
        <ele>104.65</ele>
        <time>2018-10-12T08:35:19Z</time>
      </trkpt>
      <trkpt lat="48.36948" lon="2.57954">
        <ele>104.72</ele>
        <time>2018-10-12T08:35:36Z</time>
      </trkpt>
      <trkpt lat="48.36949" lon="2.57947">
        <ele>104.72</ele>
        <time>2018-10-12T08:35:58Z</time>
      </trkpt>
      <trkpt lat="48.36946" lon="2.57946">
        <ele>104.76</ele>
        <time>2018-10-12T08:36:14Z</time>
      </trkpt>
      <trkpt lat="48.36944" lon="2.57936">
        <ele>104.8</ele>
        <time>2018-10-12T08:36:34Z</time>
      </trkpt>
      <trkpt lat="48.36948" lon="2.57931">
        <ele>104.85</ele>
        <time>2018-10-12T08:36:56Z</time>
      </trkpt>
      <trkpt lat="48.36952" lon="2.57929">
        <ele>104.9</ele>
        <time>2018-10-12T08:37:26Z</time>
      </trkpt>
      <trkpt lat="48.36952" lon="2.57918">
        <ele>104.92</ele>
        <time>2018-10-12T08:37:47Z</time>
      </trkpt>
      <trkpt lat="48.36953" lon="2.5789">
        <ele>104.94</ele>
        <time>2018-10-12T08:38:07Z</time>
      </trkpt>
      <trkpt lat="48.36952" lon="2.57887">
        <ele>104.94</ele>
        <time>2018-10-12T08:38:09Z</time>
      </trkpt>
      <trkpt lat="48.36949" lon="2.5786">
        <ele>104.95</ele>
        <time>2018-10-12T08:38:25Z</time>
      </trkpt>
      <trkpt lat="48.36949" lon="2.57857">
        <ele>104.96</ele>
        <time>2018-10-12T08:38:27Z</time>
      </trkpt>
      <trkpt lat="48.36947" lon="2.57847">
        <ele>104.97</ele>
        <time>2018-10-12T08:38:33Z</time>
      </trkpt>
      <trkpt lat="48.36941" lon="2.57829">
        <ele>105</ele>
        <time>2018-10-12T08:38:45Z</time>
      </trkpt>
      <trkpt lat="48.36939" lon="2.57824">
        <ele>105.02</ele>
        <time>2018-10-12T08:38:50Z</time>
      </trkpt>
      <trkpt lat="48.36935" lon="2.57799">
        <ele>104.32</ele>
        <time>2018-10-12T08:39:03Z</time>
      </trkpt>
      <trkpt lat="48.36928" lon="2.57772">
        <ele>104.44</ele>
        <time>2018-10-12T08:39:20Z</time>
      </trkpt>
      <trkpt lat="48.36921" lon="2.57753">
        <ele>104.55</ele>
        <time>2018-10-12T08:39:35Z</time>
      </trkpt>
      <trkpt lat="48.36918" lon="2.57747">
        <ele>104.58</ele>
        <time>2018-10-12T08:39:39Z</time>
      </trkpt>
      <trkpt lat="48.3691" lon="2.57734">
        <ele>104.62</ele>
        <time>2018-10-12T08:39:49Z</time>
      </trkpt>
      <trkpt lat="48.36908" lon="2.57718">
        <ele>104.69</ele>
        <time>2018-10-12T08:39:59Z</time>
      </trkpt>
      <trkpt lat="48.3691" lon="2.57688">
        <ele>104.82</ele>
        <time>2018-10-12T08:40:16Z</time>
      </trkpt>
      <trkpt lat="48.36914" lon="2.57648">
        <ele>104.15</ele>
        <time>2018-10-12T08:40:38Z</time>
      </trkpt>
      <trkpt lat="48.36917" lon="2.57615">
        <ele>104.26</ele>
        <time>2018-10-12T08:40:57Z</time>
      </trkpt>
      <trkpt lat="48.36916" lon="2.57612">
        <ele>104.29</ele>
        <time>2018-10-12T08:41:01Z</time>
      </trkpt>
      <trkpt lat="48.36917" lon="2.57607">
        <ele>104.31</ele>
        <time>2018-10-12T08:41:03Z</time>
      </trkpt>
      <trkpt lat="48.36918" lon="2.57585">
        <ele>104.4</ele>
        <time>2018-10-12T08:41:16Z</time>
      </trkpt>
      <trkpt lat="48.36921" lon="2.5757">
        <ele>104.48</ele>
        <time>2018-10-12T08:41:25Z</time>
      </trkpt>
      <trkpt lat="48.36927" lon="2.57556">
        <ele>104.55</ele>
        <time>2018-10-12T08:41:36Z</time>
      </trkpt>
      <trkpt lat="48.36931" lon="2.57534">
        <ele>104.65</ele>
        <time>2018-10-12T08:41:58Z</time>
      </trkpt>
      <trkpt lat="48.36933" lon="2.57519">
        <ele>103.9</ele>
        <time>2018-10-12T08:42:21Z</time>
      </trkpt>
      <trkpt lat="48.36934" lon="2.57516">
        <ele>106.46</ele>
        <time>2018-10-12T08:42:23Z</time>
      </trkpt>
      <trkpt lat="48.36943" lon="2.57485">
        <ele>106.5</ele>
        <time>2018-10-12T08:42:43Z</time>
      </trkpt>
      <trkpt lat="48.36951" lon="2.5746">
        <ele>106.51</ele>
        <time>2018-10-12T08:43:02Z</time>
      </trkpt>
      <trkpt lat="48.36956" lon="2.57442">
        <ele>106.54</ele>
        <time>2018-10-12T08:43:17Z</time>
      </trkpt>
      <trkpt lat="48.36967" lon="2.57411">
        <ele>104.78</ele>
        <time>2018-10-12T08:43:39Z</time>
      </trkpt>
      <trkpt lat="48.36967" lon="2.5741">
        <ele>104.79</ele>
        <time>2018-10-12T08:43:40Z</time>
      </trkpt>
      <trkpt lat="48.36969" lon="2.57407">
        <ele>107.73</ele>
        <time>2018-10-12T08:43:42Z</time>
      </trkpt>
      <trkpt lat="48.36977" lon="2.57384">
        <ele>107.81</ele>
        <time>2018-10-12T08:43:59Z</time>
      </trkpt>
      <trkpt lat="48.36978" lon="2.57371">
        <ele>107.83</ele>
        <time>2018-10-12T08:44:20Z</time>
      </trkpt>
      <trkpt lat="48.36984" lon="2.57356">
        <ele>107.88</ele>
        <time>2018-10-12T08:44:29Z</time>
      </trkpt>
      <trkpt lat="48.36987" lon="2.57339">
        <ele>109.06</ele>
        <time>2018-10-12T08:44:45Z</time>
      </trkpt>
      <trkpt lat="48.36992" lon="2.5734">
        <ele>109.13</ele>
        <time>2018-10-12T08:45:02Z</time>
      </trkpt>
      <trkpt lat="48.37002" lon="2.57336">
        <ele>110.1</ele>
        <time>2018-10-12T08:45:34Z</time>
      </trkpt>
      <trkpt lat="48.37001" lon="2.57343">
        <ele>110.19</ele>
        <time>2018-10-12T08:45:58Z</time>
      </trkpt>
      <trkpt lat="48.37009" lon="2.57353">
        <ele>112.05</ele>
        <time>2018-10-12T08:46:14Z</time>
      </trkpt>
      <trkpt lat="48.37022" lon="2.57356">
        <ele>114.74</ele>
        <time>2018-10-12T08:46:29Z</time>
      </trkpt>
      <trkpt lat="48.37036" lon="2.57356">
        <ele>116.45</ele>
        <time>2018-10-12T08:46:44Z</time>
      </trkpt>
      <trkpt lat="48.37054" lon="2.57346">
        <ele>117.23</ele>
        <time>2018-10-12T08:47:05Z</time>
      </trkpt>
      <trkpt lat="48.37069" lon="2.57336">
        <ele>117.31</ele>
        <time>2018-10-12T08:47:23Z</time>
      </trkpt>
      <trkpt lat="48.37091" lon="2.57341">
        <ele>117.43</ele>
        <time>2018-10-12T08:47:44Z</time>
      </trkpt>
      <trkpt lat="48.37111" lon="2.57351">
        <ele>117.5</ele>
        <time>2018-10-12T08:48:02Z</time>
      </trkpt>
      <trkpt lat="48.37125" lon="2.5736">
        <ele>117.6</ele>
        <time>2018-10-12T08:48:16Z</time>
      </trkpt>
      <trkpt lat="48.37131" lon="2.57365">
        <ele>117.67</ele>
        <time>2018-10-12T08:48:38Z</time>
      </trkpt>
      <trkpt lat="48.37132" lon="2.57361">
        <ele>117.78</ele>
        <time>2018-10-12T08:49:03Z</time>
      </trkpt>
      <trkpt lat="48.3714" lon="2.57381">
        <ele>117.81</ele>
        <time>2018-10-12T08:49:22Z</time>
      </trkpt>
      <trkpt lat="48.37139" lon="2.57383">
        <ele>117.81</ele>
        <time>2018-10-12T08:49:24Z</time>
      </trkpt>
      <trkpt lat="48.37138" lon="2.57407">
        <ele>117.86</ele>
        <time>2018-10-12T08:49:39Z</time>
      </trkpt>
      <trkpt lat="48.37138" lon="2.57408">
        <ele>117.86</ele>
        <time>2018-10-12T08:49:40Z</time>
      </trkpt>
      <trkpt lat="48.37145" lon="2.57426">
        <ele>115.54</ele>
        <time>2018-10-12T08:49:55Z</time>
      </trkpt>
      <trkpt lat="48.37148" lon="2.57439">
        <ele>114.79</ele>
        <time>2018-10-12T08:50:14Z</time>
      </trkpt>
      <trkpt lat="48.37155" lon="2.57457">
        <ele>113.19</ele>
        <time>2018-10-12T08:50:31Z</time>
      </trkpt>
      <trkpt lat="48.37158" lon="2.5747">
        <ele>113.27</ele>
        <time>2018-10-12T08:50:45Z</time>
      </trkpt>
      <trkpt lat="48.37169" lon="2.57471">
        <ele>113.35</ele>
        <time>2018-10-12T08:51:03Z</time>
      </trkpt>
      <trkpt lat="48.37173" lon="2.57463">
        <ele>113.4</ele>
        <time>2018-10-12T08:51:24Z</time>
      </trkpt>
      <trkpt lat="48.37172" lon="2.57464">
        <ele>113.45</ele>
        <time>2018-10-12T08:51:45Z</time>
      </trkpt>
      <trkpt lat="48.37171" lon="2.57462">
        <ele>113.47</ele>
        <time>2018-10-12T08:51:50Z</time>
      </trkpt>
      <trkpt lat="48.37183" lon="2.57459">
        <ele>113.49</ele>
        <time>2018-10-12T08:52:07Z</time>
      </trkpt>
      <trkpt lat="48.37201" lon="2.57455">
        <ele>113.57</ele>
        <time>2018-10-12T08:52:27Z</time>
      </trkpt>
      <trkpt lat="48.37214" lon="2.57459">
        <ele>113.62</ele>
        <time>2018-10-12T08:52:42Z</time>
      </trkpt>
      <trkpt lat="48.37233" lon="2.57469">
        <ele>113.6</ele>
        <time>2018-10-12T08:52:59Z</time>
      </trkpt>
      <trkpt lat="48.37244" lon="2.57477">
        <ele>113.71</ele>
        <time>2018-10-12T08:53:14Z</time>
      </trkpt>
      <trkpt lat="48.37261" lon="2.5749">
        <ele>113.77</ele>
        <time>2018-10-12T08:53:31Z</time>
      </trkpt>
      <trkpt lat="48.37272" lon="2.57496">
        <ele>113</ele>
        <time>2018-10-12T08:53:39Z</time>
      </trkpt>
      <trkpt lat="48.37278" lon="2.57502">
        <ele>113.02</ele>
        <time>2018-10-12T08:53:46Z</time>
      </trkpt>
      <trkpt lat="48.37288" lon="2.57507">
        <ele>112.3</ele>
        <time>2018-10-12T08:53:58Z</time>
      </trkpt>
      <trkpt lat="48.37304" lon="2.57506">
        <ele>112.37</ele>
        <time>2018-10-12T08:54:20Z</time>
      </trkpt>
      <trkpt lat="48.37311" lon="2.57518">
        <ele>111.6</ele>
        <time>2018-10-12T08:54:44Z</time>
      </trkpt>
      <trkpt lat="48.37312" lon="2.57531">
        <ele>110.94</ele>
        <time>2018-10-12T08:55:01Z</time>
      </trkpt>
      <trkpt lat="48.3731" lon="2.57538">
        <ele>110.99</ele>
        <time>2018-10-12T08:55:07Z</time>
      </trkpt>
      <trkpt lat="48.37306" lon="2.57565">
        <ele>110.34</ele>
        <time>2018-10-12T08:55:26Z</time>
      </trkpt>
      <trkpt lat="48.37304" lon="2.57599">
        <ele>108.85</ele>
        <time>2018-10-12T08:55:42Z</time>
      </trkpt>
      <trkpt lat="48.37304" lon="2.57606">
        <ele>108.86</ele>
        <time>2018-10-12T08:55:45Z</time>
      </trkpt>
      <trkpt lat="48.37302" lon="2.57612">
        <ele>108.9</ele>
        <time>2018-10-12T08:55:49Z</time>
      </trkpt>
      <trkpt lat="48.37301" lon="2.57616">
        <ele>108.91</ele>
        <time>2018-10-12T08:55:52Z</time>
      </trkpt>
      <trkpt lat="48.373" lon="2.57626">
        <ele>108.97</ele>
        <time>2018-10-12T08:55:58Z</time>
      </trkpt>
      <trkpt lat="48.37299" lon="2.5765">
        <ele>108.24</ele>
        <time>2018-10-12T08:56:10Z</time>
      </trkpt>
      <trkpt lat="48.37297" lon="2.57679">
        <ele>107.18</ele>
        <time>2018-10-12T08:56:30Z</time>
      </trkpt>
      <trkpt lat="48.37297" lon="2.577">
        <ele>107.35</ele>
        <time>2018-10-12T08:57:20Z</time>
      </trkpt>
      <trkpt lat="48.37297" lon="2.57719">
        <ele>107.39</ele>
        <time>2018-10-12T08:57:40Z</time>
      </trkpt>
      <trkpt lat="48.37293" lon="2.57746">
        <ele>107.49</ele>
        <time>2018-10-12T08:58:02Z</time>
      </trkpt>
      <trkpt lat="48.37292" lon="2.57765">
        <ele>107.48</ele>
        <time>2018-10-12T08:58:15Z</time>
      </trkpt>
      <trkpt lat="48.37289" lon="2.57796">
        <ele>107.51</ele>
        <time>2018-10-12T08:58:36Z</time>
      </trkpt>
      <trkpt lat="48.37283" lon="2.57829">
        <ele>107.47</ele>
        <time>2018-10-12T08:58:54Z</time>
      </trkpt>
      <trkpt lat="48.37277" lon="2.57852">
        <ele>107.44</ele>
        <time>2018-10-12T08:59:07Z</time>
      </trkpt>
      <trkpt lat="48.37273" lon="2.57859">
        <ele>109.72</ele>
        <time>2018-10-12T08:59:13Z</time>
      </trkpt>
      <trkpt lat="48.37273" lon="2.57886">
        <ele>109.67</ele>
        <time>2018-10-12T08:59:31Z</time>
      </trkpt>
      <trkpt lat="48.37269" lon="2.57902">
        <ele>109.67</ele>
        <time>2018-10-12T08:59:41Z</time>
      </trkpt>
      <trkpt lat="48.37263" lon="2.57923">
        <ele>109.69</ele>
        <time>2018-10-12T08:59:55Z</time>
      </trkpt>
      <trkpt lat="48.37262" lon="2.57944">
        <ele>110.66</ele>
        <time>2018-10-12T09:00:07Z</time>
      </trkpt>
      <trkpt lat="48.37259" lon="2.5796">
        <ele>110.71</ele>
        <time>2018-10-12T09:00:24Z</time>
      </trkpt>
      <trkpt lat="48.37258" lon="2.57972">
        <ele>110.74</ele>
        <time>2018-10-12T09:00:40Z</time>
      </trkpt>
      <trkpt lat="48.37265" lon="2.57977">
        <ele>111.62</ele>
        <time>2018-10-12T09:01:08Z</time>
      </trkpt>
      <trkpt lat="48.37279" lon="2.57985">
        <ele>114.07</ele>
        <time>2018-10-12T09:01:29Z</time>
      </trkpt>
      <trkpt lat="48.37291" lon="2.57988">
        <ele>115.63</ele>
        <time>2018-10-12T09:01:50Z</time>
      </trkpt>
      <trkpt lat="48.37308" lon="2.57989">
        <ele>117.28</ele>
        <time>2018-10-12T09:02:13Z</time>
      </trkpt>
      <trkpt lat="48.37316" lon="2.57989">
        <ele>118.08</ele>
        <time>2018-10-12T09:02:20Z</time>
      </trkpt>
      <trkpt lat="48.37317" lon="2.57984">
        <ele>118.06</ele>
        <time>2018-10-12T09:02:23Z</time>
      </trkpt>
      <trkpt lat="48.3733" lon="2.57967">
        <ele>119.93</ele>
        <time>2018-10-12T09:02:39Z</time>
      </trkpt>
      <trkpt lat="48.37335" lon="2.57961">
        <ele>119.85</ele>
        <time>2018-10-12T09:02:45Z</time>
      </trkpt>
      <trkpt lat="48.37345" lon="2.57951">
        <ele>119.81</ele>
        <time>2018-10-12T09:02:57Z</time>
      </trkpt>
      <trkpt lat="48.37361" lon="2.57961">
        <ele>119.7</ele>
        <time>2018-10-12T09:03:18Z</time>
      </trkpt>
      <trkpt lat="48.37363" lon="2.5796">
        <ele>119.7</ele>
        <time>2018-10-12T09:03:19Z</time>
      </trkpt>
      <trkpt lat="48.37369" lon="2.57953">
        <ele>119.67</ele>
        <time>2018-10-12T09:03:26Z</time>
      </trkpt>
      <trkpt lat="48.37368" lon="2.57941">
        <ele>120.52</ele>
        <time>2018-10-12T09:03:39Z</time>
      </trkpt>
      <trkpt lat="48.37373" lon="2.57914">
        <ele>121.28</ele>
        <time>2018-10-12T09:03:55Z</time>
      </trkpt>
      <trkpt lat="48.37375" lon="2.57911">
        <ele>121.27</ele>
        <time>2018-10-12T09:03:58Z</time>
      </trkpt>
      <trkpt lat="48.37388" lon="2.579">
        <ele>121.22</ele>
        <time>2018-10-12T09:04:12Z</time>
      </trkpt>
      <trkpt lat="48.37403" lon="2.57893">
        <ele>121.98</ele>
        <time>2018-10-12T09:04:33Z</time>
      </trkpt>
      <trkpt lat="48.3742" lon="2.57894">
        <ele>121.9</ele>
        <time>2018-10-12T09:04:49Z</time>
      </trkpt>
      <trkpt lat="48.37443" lon="2.579">
        <ele>121.95</ele>
        <time>2018-10-12T09:05:08Z</time>
      </trkpt>
      <trkpt lat="48.37459" lon="2.57905">
        <ele>121.9</ele>
        <time>2018-10-12T09:05:25Z</time>
      </trkpt>
      <trkpt lat="48.37467" lon="2.57909">
        <ele>119.47</ele>
        <time>2018-10-12T09:05:34Z</time>
      </trkpt>
      <trkpt lat="48.37477" lon="2.57918">
        <ele>118.75</ele>
        <time>2018-10-12T09:05:55Z</time>
      </trkpt>
      <trkpt lat="48.37496" lon="2.57914">
        <ele>117.92</ele>
        <time>2018-10-12T09:06:13Z</time>
      </trkpt>
      <trkpt lat="48.37519" lon="2.5791">
        <ele>117.96</ele>
        <time>2018-10-12T09:06:34Z</time>
      </trkpt>
      <trkpt lat="48.3753" lon="2.57912">
        <ele>117.98</ele>
        <time>2018-10-12T09:06:43Z</time>
      </trkpt>
      <trkpt lat="48.37542" lon="2.57916">
        <ele>118</ele>
        <time>2018-10-12T09:06:54Z</time>
      </trkpt>
      <trkpt lat="48.37563" lon="2.57926">
        <ele>117.95</ele>
        <time>2018-10-12T09:07:10Z</time>
      </trkpt>
      <trkpt lat="48.37584" lon="2.57931">
        <ele>117.95</ele>
        <time>2018-10-12T09:07:31Z</time>
      </trkpt>
      <trkpt lat="48.37605" lon="2.57936">
        <ele>117.94</ele>
        <time>2018-10-12T09:07:49Z</time>
      </trkpt>
      <trkpt lat="48.37625" lon="2.57944">
        <ele>117.96</ele>
        <time>2018-10-12T09:08:06Z</time>
      </trkpt>
      <trkpt lat="48.37644" lon="2.57954">
        <ele>117.98</ele>
        <time>2018-10-12T09:08:21Z</time>
      </trkpt>
      <trkpt lat="48.37665" lon="2.57957">
        <ele>116.07</ele>
        <time>2018-10-12T09:08:38Z</time>
      </trkpt>
      <trkpt lat="48.3768" lon="2.57959">
        <ele>116.1</ele>
        <time>2018-10-12T09:08:53Z</time>
      </trkpt>
      <trkpt lat="48.37693" lon="2.57967">
        <ele>118.64</ele>
        <time>2018-10-12T09:09:12Z</time>
      </trkpt>
      <trkpt lat="48.37698" lon="2.57962">
        <ele>118.61</ele>
        <time>2018-10-12T09:09:37Z</time>
      </trkpt>
      <trkpt lat="48.37707" lon="2.57965">
        <ele>120.63</ele>
        <time>2018-10-12T09:10:00Z</time>
      </trkpt>
      <trkpt lat="48.37717" lon="2.57968">
        <ele>120.67</ele>
        <time>2018-10-12T09:10:18Z</time>
      </trkpt>
      <trkpt lat="48.37738" lon="2.57976">
        <ele>120.72</ele>
        <time>2018-10-12T09:10:41Z</time>
      </trkpt>
      <trkpt lat="48.37756" lon="2.57977">
        <ele>120.75</ele>
        <time>2018-10-12T09:10:56Z</time>
      </trkpt>
      <trkpt lat="48.37771" lon="2.5798">
        <ele>120.77</ele>
        <time>2018-10-12T09:11:08Z</time>
      </trkpt>
      <trkpt lat="48.37791" lon="2.57984">
        <ele>120.85</ele>
        <time>2018-10-12T09:11:26Z</time>
      </trkpt>
      <trkpt lat="48.37802" lon="2.57986">
        <ele>120.89</ele>
        <time>2018-10-12T09:11:35Z</time>
      </trkpt>
      <trkpt lat="48.37819" lon="2.57984">
        <ele>121</ele>
        <time>2018-10-12T09:11:49Z</time>
      </trkpt>
      <trkpt lat="48.37835" lon="2.57985">
        <ele>120.99</ele>
        <time>2018-10-12T09:12:11Z</time>
      </trkpt>
      <trkpt lat="48.37835" lon="2.57978">
        <ele>121.03</ele>
        <time>2018-10-12T09:12:49Z</time>
      </trkpt>
      <trkpt lat="48.37833" lon="2.57985">
        <ele>121.04</ele>
        <time>2018-10-12T09:13:12Z</time>
      </trkpt>
      <trkpt lat="48.37843" lon="2.57991">
        <ele>121.02</ele>
        <time>2018-10-12T09:13:30Z</time>
      </trkpt>
      <trkpt lat="48.37864" lon="2.57996">
        <ele>121.02</ele>
        <time>2018-10-12T09:13:51Z</time>
      </trkpt>
      <trkpt lat="48.37868" lon="2.57993">
        <ele>121.05</ele>
        <time>2018-10-12T09:14:10Z</time>
      </trkpt>
      <trkpt lat="48.37871" lon="2.57993">
        <ele>121.04</ele>
        <time>2018-10-12T09:14:29Z</time>
      </trkpt>
      <trkpt lat="48.37884" lon="2.58">
        <ele>121.05</ele>
        <time>2018-10-12T09:14:42Z</time>
      </trkpt>
      <trkpt lat="48.37901" lon="2.58003">
        <ele>121.05</ele>
        <time>2018-10-12T09:14:57Z</time>
      </trkpt>
      <trkpt lat="48.37927" lon="2.58008">
        <ele>121.09</ele>
        <time>2018-10-12T09:15:17Z</time>
      </trkpt>
      <trkpt lat="48.37936" lon="2.58017">
        <ele>121.1</ele>
        <time>2018-10-12T09:15:26Z</time>
      </trkpt>
      <trkpt lat="48.37937" lon="2.58021">
        <ele>121.11</ele>
        <time>2018-10-12T09:15:29Z</time>
      </trkpt>
      <trkpt lat="48.37949" lon="2.58031">
        <ele>121.15</ele>
        <time>2018-10-12T09:15:38Z</time>
      </trkpt>
      <trkpt lat="48.37962" lon="2.58047">
        <ele>121.18</ele>
        <time>2018-10-12T09:15:51Z</time>
      </trkpt>
      <trkpt lat="48.37967" lon="2.58053">
        <ele>121.2</ele>
        <time>2018-10-12T09:15:57Z</time>
      </trkpt>
      <trkpt lat="48.37979" lon="2.58068">
        <ele>121.25</ele>
        <time>2018-10-12T09:16:10Z</time>
      </trkpt>
      <trkpt lat="48.37991" lon="2.58085">
        <ele>121.32</ele>
        <time>2018-10-12T09:16:24Z</time>
      </trkpt>
      <trkpt lat="48.37994" lon="2.58087">
        <ele>121.33</ele>
        <time>2018-10-12T09:16:26Z</time>
      </trkpt>
      <trkpt lat="48.38011" lon="2.58103">
        <ele>118.95</ele>
        <time>2018-10-12T09:16:40Z</time>
      </trkpt>
      <trkpt lat="48.38023" lon="2.58117">
        <ele>118.97</ele>
        <time>2018-10-12T09:16:51Z</time>
      </trkpt>
      <trkpt lat="48.38034" lon="2.58131">
        <ele>118.23</ele>
        <time>2018-10-12T09:17:04Z</time>
      </trkpt>
      <trkpt lat="48.38049" lon="2.58147">
        <ele>118.25</ele>
        <time>2018-10-12T09:17:19Z</time>
      </trkpt>
      <trkpt lat="48.38052" lon="2.58148">
        <ele>118.25</ele>
        <time>2018-10-12T09:17:29Z</time>
      </trkpt>
      <trkpt lat="48.38063" lon="2.58165">
        <ele>117.45</ele>
        <time>2018-10-12T09:17:43Z</time>
      </trkpt>
      <trkpt lat="48.38077" lon="2.58184">
        <ele>117.48</ele>
        <time>2018-10-12T09:17:57Z</time>
      </trkpt>
      <trkpt lat="48.38094" lon="2.58203">
        <ele>117.47</ele>
        <time>2018-10-12T09:18:11Z</time>
      </trkpt>
      <trkpt lat="48.38106" lon="2.58211">
        <ele>117.47</ele>
        <time>2018-10-12T09:18:21Z</time>
      </trkpt>
      <trkpt lat="48.38124" lon="2.58222">
        <ele>117.49</ele>
        <time>2018-10-12T09:18:38Z</time>
      </trkpt>
      <trkpt lat="48.38135" lon="2.58228">
        <ele>117.49</ele>
        <time>2018-10-12T09:18:51Z</time>
      </trkpt>
      <trkpt lat="48.38146" lon="2.5823">
        <ele>117.41</ele>
        <time>2018-10-12T09:19:07Z</time>
      </trkpt>
      <trkpt lat="48.38159" lon="2.58225">
        <ele>114.45</ele>
        <time>2018-10-12T09:19:26Z</time>
      </trkpt>
      <trkpt lat="48.38175" lon="2.58217">
        <ele>112.25</ele>
        <time>2018-10-12T09:19:46Z</time>
      </trkpt>
      <trkpt lat="48.38176" lon="2.58214">
        <ele>112.24</ele>
        <time>2018-10-12T09:19:49Z</time>
      </trkpt>
      <trkpt lat="48.38179" lon="2.58204">
        <ele>111.58</ele>
        <time>2018-10-12T09:20:03Z</time>
      </trkpt>
      <trkpt lat="48.38189" lon="2.58189">
        <ele>109.85</ele>
        <time>2018-10-12T09:20:21Z</time>
      </trkpt>
      <trkpt lat="48.38195" lon="2.58184">
        <ele>109.03</ele>
        <time>2018-10-12T09:20:36Z</time>
      </trkpt>
      <trkpt lat="48.38204" lon="2.58172">
        <ele>106.48</ele>
        <time>2018-10-12T09:20:48Z</time>
      </trkpt>
      <trkpt lat="48.38216" lon="2.58156">
        <ele>105.7</ele>
        <time>2018-10-12T09:21:04Z</time>
      </trkpt>
      <trkpt lat="48.38223" lon="2.58154">
        <ele>104.1</ele>
        <time>2018-10-12T09:21:21Z</time>
      </trkpt>
      <trkpt lat="48.38226" lon="2.58156">
        <ele>102.48</ele>
        <time>2018-10-12T09:21:38Z</time>
      </trkpt>
      <trkpt lat="48.38232" lon="2.58171">
        <ele>99.72</ele>
        <time>2018-10-12T09:21:58Z</time>
      </trkpt>
      <trkpt lat="48.38243" lon="2.58181">
        <ele>97.41</ele>
        <time>2018-10-12T09:22:15Z</time>
      </trkpt>
      <trkpt lat="48.38259" lon="2.58183">
        <ele>96.79</ele>
        <time>2018-10-12T09:22:38Z</time>
      </trkpt>
      <trkpt lat="48.38264" lon="2.5818">
        <ele>96.81</ele>
        <time>2018-10-12T09:22:43Z</time>
      </trkpt>
      <trkpt lat="48.38273" lon="2.58172">
        <ele>95.43</ele>
        <time>2018-10-12T09:22:55Z</time>
      </trkpt>
      <trkpt lat="48.3828" lon="2.58168">
        <ele>95.57</ele>
        <time>2018-10-12T09:23:15Z</time>
      </trkpt>
      <trkpt lat="48.383" lon="2.58156">
        <ele>94.71</ele>
        <time>2018-10-12T09:23:34Z</time>
      </trkpt>
      <trkpt lat="48.38304" lon="2.58154">
        <ele>93.95</ele>
        <time>2018-10-12T09:23:37Z</time>
      </trkpt>
      <trkpt lat="48.38313" lon="2.5815">
        <ele>93.99</ele>
        <time>2018-10-12T09:23:46Z</time>
      </trkpt>
      <trkpt lat="48.38315" lon="2.58149">
        <ele>93.21</ele>
        <time>2018-10-12T09:23:48Z</time>
      </trkpt>
      <trkpt lat="48.38323" lon="2.58145">
        <ele>93.24</ele>
        <time>2018-10-12T09:23:57Z</time>
      </trkpt>
      <trkpt lat="48.38336" lon="2.58136">
        <ele>92.48</ele>
        <time>2018-10-12T09:24:09Z</time>
      </trkpt>
      <trkpt lat="48.3835" lon="2.58131">
        <ele>92.54</ele>
        <time>2018-10-12T09:24:22Z</time>
      </trkpt>
      <trkpt lat="48.38367" lon="2.5812">
        <ele>91.84</ele>
        <time>2018-10-12T09:24:39Z</time>
      </trkpt>
      <trkpt lat="48.38368" lon="2.58119">
        <ele>91.88</ele>
        <time>2018-10-12T09:24:53Z</time>
      </trkpt>
      <trkpt lat="48.38369" lon="2.58118">
        <ele>91.9</ele>
        <time>2018-10-12T09:25:14Z</time>
      </trkpt>
      <trkpt lat="48.38369" lon="2.58116">
        <ele>91.9</ele>
        <time>2018-10-12T09:25:29Z</time>
      </trkpt>
      <trkpt lat="48.38375" lon="2.5811">
        <ele>91.87</ele>
        <time>2018-10-12T09:25:47Z</time>
      </trkpt>
      <trkpt lat="48.38392" lon="2.58099">
        <ele>90.06</ele>
        <time>2018-10-12T09:26:05Z</time>
      </trkpt>
      <trkpt lat="48.38398" lon="2.58098">
        <ele>90.1</ele>
        <time>2018-10-12T09:26:11Z</time>
      </trkpt>
      <trkpt lat="48.38403" lon="2.58109">
        <ele>90.1</ele>
        <time>2018-10-12T09:26:23Z</time>
      </trkpt>
      <trkpt lat="48.38402" lon="2.58129">
        <ele>91.03</ele>
        <time>2018-10-12T09:26:36Z</time>
      </trkpt>
      <trkpt lat="48.38402" lon="2.58131">
        <ele>91.03</ele>
        <time>2018-10-12T09:26:37Z</time>
      </trkpt>
      <trkpt lat="48.38406" lon="2.58149">
        <ele>91.04</ele>
        <time>2018-10-12T09:26:51Z</time>
      </trkpt>
      <trkpt lat="48.38409" lon="2.58159">
        <ele>91.05</ele>
        <time>2018-10-12T09:26:56Z</time>
      </trkpt>
      <trkpt lat="48.38408" lon="2.58165">
        <ele>91.05</ele>
        <time>2018-10-12T09:26:59Z</time>
      </trkpt>
      <trkpt lat="48.38407" lon="2.58169">
        <ele>91.05</ele>
        <time>2018-10-12T09:27:02Z</time>
      </trkpt>
      <trkpt lat="48.38405" lon="2.58189">
        <ele>91.09</ele>
        <time>2018-10-12T09:27:15Z</time>
      </trkpt>
      <trkpt lat="48.38404" lon="2.58206">
        <ele>91.1</ele>
        <time>2018-10-12T09:27:25Z</time>
      </trkpt>
      <trkpt lat="48.38406" lon="2.58236">
        <ele>91.15</ele>
        <time>2018-10-12T09:27:41Z</time>
      </trkpt>
      <trkpt lat="48.38411" lon="2.58256">
        <ele>91.2</ele>
        <time>2018-10-12T09:27:51Z</time>
      </trkpt>
      <trkpt lat="48.3841" lon="2.5826">
        <ele>91.19</ele>
        <time>2018-10-12T09:27:53Z</time>
      </trkpt>
      <trkpt lat="48.38409" lon="2.58267">
        <ele>91.21</ele>
        <time>2018-10-12T09:27:57Z</time>
      </trkpt>
      <trkpt lat="48.38408" lon="2.58271">
        <ele>91.21</ele>
        <time>2018-10-12T09:28:00Z</time>
      </trkpt>
      <trkpt lat="48.38408" lon="2.58275">
        <ele>91.24</ele>
        <time>2018-10-12T09:28:03Z</time>
      </trkpt>
      <trkpt lat="48.38407" lon="2.58294">
        <ele>91.27</ele>
        <time>2018-10-12T09:28:13Z</time>
      </trkpt>
      <trkpt lat="48.38407" lon="2.58297">
        <ele>91.29</ele>
        <time>2018-10-12T09:28:15Z</time>
      </trkpt>
      <trkpt lat="48.38406" lon="2.58307">
        <ele>91.32</ele>
        <time>2018-10-12T09:28:22Z</time>
      </trkpt>
      <trkpt lat="48.38406" lon="2.58322">
        <ele>91.39</ele>
        <time>2018-10-12T09:28:30Z</time>
      </trkpt>
      <trkpt lat="48.38407" lon="2.58343">
        <ele>91.51</ele>
        <time>2018-10-12T09:28:42Z</time>
      </trkpt>
      <trkpt lat="48.38407" lon="2.58372">
        <ele>91.67</ele>
        <time>2018-10-12T09:28:57Z</time>
      </trkpt>
      <trkpt lat="48.38403" lon="2.58384">
        <ele>91.77</ele>
        <time>2018-10-12T09:29:05Z</time>
      </trkpt>
      <trkpt lat="48.38403" lon="2.5839">
        <ele>91.81</ele>
        <time>2018-10-12T09:29:08Z</time>
      </trkpt>
      <trkpt lat="48.38401" lon="2.58406">
        <ele>91.92</ele>
        <time>2018-10-12T09:29:17Z</time>
      </trkpt>
      <trkpt lat="48.38396" lon="2.58425">
        <ele>92</ele>
        <time>2018-10-12T09:29:28Z</time>
      </trkpt>
      <trkpt lat="48.38389" lon="2.58457">
        <ele>92.1</ele>
        <time>2018-10-12T09:29:43Z</time>
      </trkpt>
      <trkpt lat="48.38387" lon="2.58467">
        <ele>92.14</ele>
        <time>2018-10-12T09:29:49Z</time>
      </trkpt>
      <trkpt lat="48.38384" lon="2.58483">
        <ele>92.18</ele>
        <time>2018-10-12T09:29:57Z</time>
      </trkpt>
      <trkpt lat="48.38383" lon="2.58501">
        <ele>92.24</ele>
        <time>2018-10-12T09:30:14Z</time>
      </trkpt>
      <trkpt lat="48.38383" lon="2.58506">
        <ele>93.15</ele>
        <time>2018-10-12T09:30:35Z</time>
      </trkpt>
      <trkpt lat="48.38385" lon="2.5851">
        <ele>93.14</ele>
        <time>2018-10-12T09:31:04Z</time>
      </trkpt>
      <trkpt lat="48.38385" lon="2.58508">
        <ele>93.16</ele>
        <time>2018-10-12T09:31:26Z</time>
      </trkpt>
      <trkpt lat="48.38384" lon="2.58505">
        <ele>93.15</ele>
        <time>2018-10-12T09:31:49Z</time>
      </trkpt>
      <trkpt lat="48.38384" lon="2.58511">
        <ele>93.12</ele>
        <time>2018-10-12T09:32:08Z</time>
      </trkpt>
      <trkpt lat="48.38377" lon="2.58525">
        <ele>93.1</ele>
        <time>2018-10-12T09:32:20Z</time>
      </trkpt>
      <trkpt lat="48.38377" lon="2.58525">
        <ele>93.1</ele>
        <time>2018-10-12T09:32:25Z</time>
      </trkpt>
      <trkpt lat="48.38379" lon="2.58517">
        <ele>93.1</ele>
        <time>2018-10-12T09:32:30Z</time>
      </trkpt>
      <trkpt lat="48.3838" lon="2.58504">
        <ele>93.09</ele>
        <time>2018-10-12T09:32:45Z</time>
      </trkpt>
      <trkpt lat="48.3838" lon="2.58508">
        <ele>93.09</ele>
        <time>2018-10-12T09:32:50Z</time>
      </trkpt>
      <trkpt lat="48.38379" lon="2.58525">
        <ele>93.09</ele>
        <time>2018-10-12T09:33:00Z</time>
      </trkpt>
      <trkpt lat="48.38379" lon="2.58532">
        <ele>93.09</ele>
        <time>2018-10-12T09:33:04Z</time>
      </trkpt>
      <trkpt lat="48.38375" lon="2.58538">
        <ele>93.06</ele>
        <time>2018-10-12T09:33:18Z</time>
      </trkpt>
      <trkpt lat="48.38375" lon="2.58546">
        <ele>93.01</ele>
        <time>2018-10-12T09:33:39Z</time>
      </trkpt>
      <trkpt lat="48.38374" lon="2.58555">
        <ele>92.99</ele>
        <time>2018-10-12T09:33:49Z</time>
      </trkpt>
      <trkpt lat="48.38373" lon="2.58563">
        <ele>93</ele>
        <time>2018-10-12T09:33:53Z</time>
      </trkpt>
      <trkpt lat="48.38372" lon="2.58571">
        <ele>92.99</ele>
        <time>2018-10-12T09:33:58Z</time>
      </trkpt>
      <trkpt lat="48.38365" lon="2.58596">
        <ele>92.99</ele>
        <time>2018-10-12T09:34:14Z</time>
      </trkpt>
      <trkpt lat="48.38362" lon="2.58612">
        <ele>93</ele>
        <time>2018-10-12T09:34:26Z</time>
      </trkpt>
      <trkpt lat="48.38365" lon="2.58625">
        <ele>93.04</ele>
        <time>2018-10-12T09:34:45Z</time>
      </trkpt>
      <trkpt lat="48.38364" lon="2.58629">
        <ele>93.04</ele>
        <time>2018-10-12T09:34:47Z</time>
      </trkpt>
      <trkpt lat="48.38362" lon="2.58651">
        <ele>93.06</ele>
        <time>2018-10-12T09:34:59Z</time>
      </trkpt>
      <trkpt lat="48.38364" lon="2.5866">
        <ele>94.64</ele>
        <time>2018-10-12T09:35:11Z</time>
      </trkpt>
      <trkpt lat="48.38365" lon="2.58678">
        <ele>94.65</ele>
        <time>2018-10-12T09:35:29Z</time>
      </trkpt>
      <trkpt lat="48.38362" lon="2.58686">
        <ele>94.67</ele>
        <time>2018-10-12T09:35:35Z</time>
      </trkpt>
      <trkpt lat="48.3836" lon="2.58689">
        <ele>94.67</ele>
        <time>2018-10-12T09:35:38Z</time>
      </trkpt>
      <trkpt lat="48.38359" lon="2.58694">
        <ele>94.67</ele>
        <time>2018-10-12T09:35:41Z</time>
      </trkpt>
      <trkpt lat="48.38357" lon="2.58716">
        <ele>94.75</ele>
        <time>2018-10-12T09:35:58Z</time>
      </trkpt>
      <trkpt lat="48.38357" lon="2.58724">
        <ele>94.78</ele>
        <time>2018-10-12T09:36:04Z</time>
      </trkpt>
      <trkpt lat="48.38359" lon="2.58731">
        <ele>94.89</ele>
        <time>2018-10-12T09:36:22Z</time>
      </trkpt>
      <trkpt lat="48.38359" lon="2.58734">
        <ele>95.02</ele>
        <time>2018-10-12T09:36:40Z</time>
      </trkpt>
      <trkpt lat="48.38356" lon="2.58753">
        <ele>95.13</ele>
        <time>2018-10-12T09:36:59Z</time>
      </trkpt>
      <trkpt lat="48.38352" lon="2.58762">
        <ele>95.15</ele>
        <time>2018-10-12T09:37:07Z</time>
      </trkpt>
      <trkpt lat="48.38344" lon="2.58774">
        <ele>95.28</ele>
        <time>2018-10-12T09:37:27Z</time>
      </trkpt>
      <trkpt lat="48.38333" lon="2.58805">
        <ele>97.27</ele>
        <time>2018-10-12T09:37:47Z</time>
      </trkpt>
      <trkpt lat="48.38332" lon="2.58807">
        <ele>97.26</ele>
        <time>2018-10-12T09:37:48Z</time>
      </trkpt>
      <trkpt lat="48.38324" lon="2.58824">
        <ele>97.26</ele>
        <time>2018-10-12T09:38:01Z</time>
      </trkpt>
      <trkpt lat="48.38313" lon="2.58844">
        <ele>97.28</ele>
        <time>2018-10-12T09:38:14Z</time>
      </trkpt>
      <trkpt lat="48.38309" lon="2.58849">
        <ele>98.11</ele>
        <time>2018-10-12T09:38:18Z</time>
      </trkpt>
      <trkpt lat="48.38306" lon="2.58856">
        <ele>98.13</ele>
        <time>2018-10-12T09:38:23Z</time>
      </trkpt>
      <trkpt lat="48.38304" lon="2.58862">
        <ele>98.11</ele>
        <time>2018-10-12T09:38:26Z</time>
      </trkpt>
      <trkpt lat="48.38302" lon="2.58877">
        <ele>100.74</ele>
        <time>2018-10-12T09:38:34Z</time>
      </trkpt>
      <trkpt lat="48.38295" lon="2.58904">
        <ele>101.53</ele>
        <time>2018-10-12T09:38:48Z</time>
      </trkpt>
      <trkpt lat="48.3829" lon="2.58926">
        <ele>102.63</ele>
        <time>2018-10-12T09:39:01Z</time>
      </trkpt>
      <trkpt lat="48.3828" lon="2.58946">
        <ele>102.61</ele>
        <time>2018-10-12T09:39:17Z</time>
      </trkpt>
      <trkpt lat="48.38269" lon="2.58963">
        <ele>103.42</ele>
        <time>2018-10-12T09:39:31Z</time>
      </trkpt>
      <trkpt lat="48.38263" lon="2.58974">
        <ele>104.16</ele>
        <time>2018-10-12T09:39:38Z</time>
      </trkpt>
      <trkpt lat="48.38258" lon="2.58978">
        <ele>104.15</ele>
        <time>2018-10-12T09:39:43Z</time>
      </trkpt>
      <trkpt lat="48.38249" lon="2.58993">
        <ele>104.91</ele>
        <time>2018-10-12T09:39:54Z</time>
      </trkpt>
      <trkpt lat="48.3824" lon="2.59012">
        <ele>106.76</ele>
        <time>2018-10-12T09:40:08Z</time>
      </trkpt>
      <trkpt lat="48.38236" lon="2.59032">
        <ele>108.51</ele>
        <time>2018-10-12T09:40:22Z</time>
      </trkpt>
      <trkpt lat="48.38236" lon="2.59049">
        <ele>109.8</ele>
        <time>2018-10-12T09:40:31Z</time>
      </trkpt>
      <trkpt lat="48.38237" lon="2.59067">
        <ele>109.83</ele>
        <time>2018-10-12T09:40:53Z</time>
      </trkpt>
      <trkpt lat="48.38237" lon="2.59069">
        <ele>111.28</ele>
        <time>2018-10-12T09:40:59Z</time>
      </trkpt>
      <trkpt lat="48.38237" lon="2.59076">
        <ele>111.29</ele>
        <time>2018-10-12T09:41:05Z</time>
      </trkpt>
      <trkpt lat="48.38237" lon="2.5908">
        <ele>111.31</ele>
        <time>2018-10-12T09:41:08Z</time>
      </trkpt>
      <trkpt lat="48.38236" lon="2.59095">
        <ele>112.13</ele>
        <time>2018-10-12T09:41:26Z</time>
      </trkpt>
      <trkpt lat="48.38235" lon="2.5911">
        <ele>112.12</ele>
        <time>2018-10-12T09:41:55Z</time>
      </trkpt>
      <trkpt lat="48.38235" lon="2.59133">
        <ele>113.89</ele>
        <time>2018-10-12T09:42:12Z</time>
      </trkpt>
      <trkpt lat="48.38235" lon="2.59163">
        <ele>115.45</ele>
        <time>2018-10-12T09:42:31Z</time>
      </trkpt>
      <trkpt lat="48.3823" lon="2.59182">
        <ele>116.97</ele>
        <time>2018-10-12T09:42:45Z</time>
      </trkpt>
      <trkpt lat="48.38224" lon="2.59204">
        <ele>118.54</ele>
        <time>2018-10-12T09:43:01Z</time>
      </trkpt>
      <trkpt lat="48.38223" lon="2.59206">
        <ele>119.34</ele>
        <time>2018-10-12T09:43:03Z</time>
      </trkpt>
      <trkpt lat="48.38217" lon="2.59229">
        <ele>120.1</ele>
        <time>2018-10-12T09:43:18Z</time>
      </trkpt>
      <trkpt lat="48.38209" lon="2.59247">
        <ele>121.73</ele>
        <time>2018-10-12T09:43:30Z</time>
      </trkpt>
      <trkpt lat="48.38201" lon="2.59269">
        <ele>123.32</ele>
        <time>2018-10-12T09:43:46Z</time>
      </trkpt>
      <trkpt lat="48.38195" lon="2.59293">
        <ele>123.27</ele>
        <time>2018-10-12T09:44:02Z</time>
      </trkpt>
      <trkpt lat="48.38194" lon="2.59305">
        <ele>123.3</ele>
        <time>2018-10-12T09:44:11Z</time>
      </trkpt>
      <trkpt lat="48.3819" lon="2.59324">
        <ele>123.36</ele>
        <time>2018-10-12T09:44:25Z</time>
      </trkpt>
      <trkpt lat="48.38186" lon="2.59336">
        <ele>123.39</ele>
        <time>2018-10-12T09:44:32Z</time>
      </trkpt>
      <trkpt lat="48.38185" lon="2.59343">
        <ele>123.42</ele>
        <time>2018-10-12T09:44:37Z</time>
      </trkpt>
      <trkpt lat="48.38183" lon="2.59358">
        <ele>123.45</ele>
        <time>2018-10-12T09:44:45Z</time>
      </trkpt>
      <trkpt lat="48.38177" lon="2.59377">
        <ele>123.53</ele>
        <time>2018-10-12T09:45:00Z</time>
      </trkpt>
      <trkpt lat="48.38173" lon="2.59396">
        <ele>123.62</ele>
        <time>2018-10-12T09:45:12Z</time>
      </trkpt>
      <trkpt lat="48.38167" lon="2.5943">
        <ele>123.73</ele>
        <time>2018-10-12T09:45:27Z</time>
      </trkpt>
      <trkpt lat="48.38163" lon="2.59444">
        <ele>123.78</ele>
        <time>2018-10-12T09:45:34Z</time>
      </trkpt>
      <trkpt lat="48.38163" lon="2.59448">
        <ele>123.79</ele>
        <time>2018-10-12T09:45:36Z</time>
      </trkpt>
      <trkpt lat="48.38159" lon="2.59464">
        <ele>123.88</ele>
        <time>2018-10-12T09:45:45Z</time>
      </trkpt>
      <trkpt lat="48.38153" lon="2.59485">
        <ele>123.94</ele>
        <time>2018-10-12T09:45:58Z</time>
      </trkpt>
      <trkpt lat="48.38148" lon="2.59505">
        <ele>124</ele>
        <time>2018-10-12T09:46:09Z</time>
      </trkpt>
      <trkpt lat="48.38144" lon="2.59511">
        <ele>124.01</ele>
        <time>2018-10-12T09:46:14Z</time>
      </trkpt>
      <trkpt lat="48.38143" lon="2.59514">
        <ele>124.02</ele>
        <time>2018-10-12T09:46:16Z</time>
      </trkpt>
      <trkpt lat="48.38132" lon="2.59531">
        <ele>124.06</ele>
        <time>2018-10-12T09:46:31Z</time>
      </trkpt>
      <trkpt lat="48.38123" lon="2.59543">
        <ele>124.1</ele>
        <time>2018-10-12T09:46:42Z</time>
      </trkpt>
      <trkpt lat="48.38113" lon="2.59556">
        <ele>124.14</ele>
        <time>2018-10-12T09:46:54Z</time>
      </trkpt>
      <trkpt lat="48.38101" lon="2.59575">
        <ele>124.17</ele>
        <time>2018-10-12T09:47:10Z</time>
      </trkpt>
      <trkpt lat="48.38093" lon="2.59594">
        <ele>124.17</ele>
        <time>2018-10-12T09:47:21Z</time>
      </trkpt>
      <trkpt lat="48.38081" lon="2.59609">
        <ele>124.18</ele>
        <time>2018-10-12T09:47:35Z</time>
      </trkpt>
      <trkpt lat="48.38066" lon="2.59621">
        <ele>124.2</ele>
        <time>2018-10-12T09:47:51Z</time>
      </trkpt>
      <trkpt lat="48.38052" lon="2.59618">
        <ele>124.18</ele>
        <time>2018-10-12T09:48:07Z</time>
      </trkpt>
      <trkpt lat="48.38032" lon="2.59608">
        <ele>124.23</ele>
        <time>2018-10-12T09:48:22Z</time>
      </trkpt>
      <trkpt lat="48.38017" lon="2.59599">
        <ele>124.25</ele>
        <time>2018-10-12T09:48:37Z</time>
      </trkpt>
      <trkpt lat="48.38001" lon="2.59597">
        <ele>124.25</ele>
        <time>2018-10-12T09:48:51Z</time>
      </trkpt>
      <trkpt lat="48.37995" lon="2.59609">
        <ele>124.23</ele>
        <time>2018-10-12T09:49:10Z</time>
      </trkpt>
      <trkpt lat="48.37996" lon="2.59614">
        <ele>124.2</ele>
        <time>2018-10-12T09:49:23Z</time>
      </trkpt>
      <trkpt lat="48.38003" lon="2.59638">
        <ele>124.16</ele>
        <time>2018-10-12T09:49:39Z</time>
      </trkpt>
      <trkpt lat="48.38005" lon="2.59641">
        <ele>124.14</ele>
        <time>2018-10-12T09:49:49Z</time>
      </trkpt>
      <trkpt lat="48.38014" lon="2.59663">
        <ele>124.08</ele>
        <time>2018-10-12T09:50:05Z</time>
      </trkpt>
      <trkpt lat="48.38018" lon="2.59684">
        <ele>124.78</ele>
        <time>2018-10-12T09:50:19Z</time>
      </trkpt>
      <trkpt lat="48.38023" lon="2.59703">
        <ele>124.72</ele>
        <time>2018-10-12T09:50:33Z</time>
      </trkpt>
      <trkpt lat="48.38028" lon="2.59725">
        <ele>124.65</ele>
        <time>2018-10-12T09:50:48Z</time>
      </trkpt>
      <trkpt lat="48.38035" lon="2.59747">
        <ele>125.46</ele>
        <time>2018-10-12T09:51:02Z</time>
      </trkpt>
      <trkpt lat="48.38039" lon="2.59763">
        <ele>125.33</ele>
        <time>2018-10-12T09:51:23Z</time>
      </trkpt>
      <trkpt lat="48.38045" lon="2.59778">
        <ele>125.23</ele>
        <time>2018-10-12T09:51:39Z</time>
      </trkpt>
      <trkpt lat="48.38053" lon="2.59807">
        <ele>125.01</ele>
        <time>2018-10-12T09:51:59Z</time>
      </trkpt>
      <trkpt lat="48.38054" lon="2.59809">
        <ele>125.01</ele>
        <time>2018-10-12T09:52:00Z</time>
      </trkpt>
      <trkpt lat="48.38058" lon="2.59819">
        <ele>123.64</ele>
        <time>2018-10-12T09:52:06Z</time>
      </trkpt>
      <trkpt lat="48.38065" lon="2.59843">
        <ele>123.81</ele>
        <time>2018-10-12T09:52:21Z</time>
      </trkpt>
      <trkpt lat="48.38068" lon="2.59852">
        <ele>125.44</ele>
        <time>2018-10-12T09:52:28Z</time>
      </trkpt>
      <trkpt lat="48.38075" lon="2.5988">
        <ele>125.32</ele>
        <time>2018-10-12T09:52:46Z</time>
      </trkpt>
      <trkpt lat="48.38077" lon="2.59888">
        <ele>125.27</ele>
        <time>2018-10-12T09:52:51Z</time>
      </trkpt>
      <trkpt lat="48.38084" lon="2.59912">
        <ele>125</ele>
        <time>2018-10-12T09:53:07Z</time>
      </trkpt>
      <trkpt lat="48.3809" lon="2.59937">
        <ele>125.03</ele>
        <time>2018-10-12T09:53:21Z</time>
      </trkpt>
      <trkpt lat="48.3809" lon="2.59939">
        <ele>125.02</ele>
        <time>2018-10-12T09:53:22Z</time>
      </trkpt>
      <trkpt lat="48.38096" lon="2.59961">
        <ele>124.93</ele>
        <time>2018-10-12T09:53:35Z</time>
      </trkpt>
      <trkpt lat="48.381" lon="2.59968">
        <ele>124.92</ele>
        <time>2018-10-12T09:53:40Z</time>
      </trkpt>
      <trkpt lat="48.381" lon="2.59971">
        <ele>124.91</ele>
        <time>2018-10-12T09:53:42Z</time>
      </trkpt>
      <trkpt lat="48.38104" lon="2.59979">
        <ele>124.89</ele>
        <time>2018-10-12T09:53:47Z</time>
      </trkpt>
      <trkpt lat="48.38109" lon="2.60003">
        <ele>124.82</ele>
        <time>2018-10-12T09:54:00Z</time>
      </trkpt>
      <trkpt lat="48.38114" lon="2.60022">
        <ele>124.83</ele>
        <time>2018-10-12T09:54:10Z</time>
      </trkpt>
      <trkpt lat="48.38114" lon="2.60025">
        <ele>124.83</ele>
        <time>2018-10-12T09:54:12Z</time>
      </trkpt>
      <trkpt lat="48.38116" lon="2.60033">
        <ele>124.82</ele>
        <time>2018-10-12T09:54:16Z</time>
      </trkpt>
      <trkpt lat="48.38116" lon="2.60037">
        <ele>124.82</ele>
        <time>2018-10-12T09:54:18Z</time>
      </trkpt>
      <trkpt lat="48.38123" lon="2.60064">
        <ele>124.87</ele>
        <time>2018-10-12T09:54:34Z</time>
      </trkpt>
      <trkpt lat="48.38128" lon="2.60081">
        <ele>124.86</ele>
        <time>2018-10-12T09:54:43Z</time>
      </trkpt>
      <trkpt lat="48.38132" lon="2.60102">
        <ele>124.88</ele>
        <time>2018-10-12T09:54:56Z</time>
      </trkpt>
      <trkpt lat="48.38133" lon="2.60104">
        <ele>124.88</ele>
        <time>2018-10-12T09:54:57Z</time>
      </trkpt>
      <trkpt lat="48.38136" lon="2.60114">
        <ele>124.9</ele>
        <time>2018-10-12T09:55:03Z</time>
      </trkpt>
      <trkpt lat="48.38141" lon="2.6013">
        <ele>124.94</ele>
        <time>2018-10-12T09:55:12Z</time>
      </trkpt>
      <trkpt lat="48.38145" lon="2.60151">
        <ele>125.02</ele>
        <time>2018-10-12T09:55:26Z</time>
      </trkpt>
      <trkpt lat="48.38154" lon="2.60175">
        <ele>125.1</ele>
        <time>2018-10-12T09:55:39Z</time>
      </trkpt>
      <trkpt lat="48.38159" lon="2.60193">
        <ele>125.14</ele>
        <time>2018-10-12T09:55:51Z</time>
      </trkpt>
      <trkpt lat="48.38162" lon="2.60208">
        <ele>125.18</ele>
        <time>2018-10-12T09:55:59Z</time>
      </trkpt>
      <trkpt lat="48.38169" lon="2.6023">
        <ele>125.24</ele>
        <time>2018-10-12T09:56:12Z</time>
      </trkpt>
      <trkpt lat="48.38177" lon="2.60249">
        <ele>125.26</ele>
        <time>2018-10-12T09:56:23Z</time>
      </trkpt>
      <trkpt lat="48.3818" lon="2.60265">
        <ele>125.27</ele>
        <time>2018-10-12T09:56:37Z</time>
      </trkpt>
      <trkpt lat="48.38182" lon="2.60274">
        <ele>125.28</ele>
        <time>2018-10-12T09:56:54Z</time>
      </trkpt>
      <trkpt lat="48.38186" lon="2.60281">
        <ele>125.24</ele>
        <time>2018-10-12T09:57:27Z</time>
      </trkpt>
      <trkpt lat="48.38187" lon="2.6028">
        <ele>125.23</ele>
        <time>2018-10-12T09:58:07Z</time>
      </trkpt>
      <trkpt lat="48.38187" lon="2.60279">
        <ele>125.15</ele>
        <time>2018-10-12T09:58:42Z</time>
      </trkpt>
      <trkpt lat="48.38179" lon="2.60279">
        <ele>125.03</ele>
        <time>2018-10-12T09:59:03Z</time>
      </trkpt>
      <trkpt lat="48.38176" lon="2.60281">
        <ele>122.45</ele>
        <time>2018-10-12T09:59:06Z</time>
      </trkpt>
      <trkpt lat="48.38163" lon="2.60289">
        <ele>122.37</ele>
        <time>2018-10-12T09:59:19Z</time>
      </trkpt>
      <trkpt lat="48.38156" lon="2.60294">
        <ele>122.39</ele>
        <time>2018-10-12T09:59:26Z</time>
      </trkpt>
      <trkpt lat="48.38153" lon="2.60297">
        <ele>122.38</ele>
        <time>2018-10-12T09:59:29Z</time>
      </trkpt>
      <trkpt lat="48.38142" lon="2.60304">
        <ele>122.37</ele>
        <time>2018-10-12T09:59:39Z</time>
      </trkpt>
      <trkpt lat="48.38126" lon="2.60317">
        <ele>122.34</ele>
        <time>2018-10-12T09:59:53Z</time>
      </trkpt>
      <trkpt lat="48.38124" lon="2.60318">
        <ele>122.35</ele>
        <time>2018-10-12T09:59:55Z</time>
      </trkpt>
      <trkpt lat="48.38113" lon="2.60326">
        <ele>124.63</ele>
        <time>2018-10-12T10:00:05Z</time>
      </trkpt>
      <trkpt lat="48.38095" lon="2.6034">
        <ele>124.62</ele>
        <time>2018-10-12T10:00:21Z</time>
      </trkpt>
      <trkpt lat="48.38081" lon="2.60348">
        <ele>124.63</ele>
        <time>2018-10-12T10:00:33Z</time>
      </trkpt>
      <trkpt lat="48.38075" lon="2.60351">
        <ele>124.63</ele>
        <time>2018-10-12T10:00:38Z</time>
      </trkpt>
      <trkpt lat="48.38068" lon="2.60357">
        <ele>124.63</ele>
        <time>2018-10-12T10:00:45Z</time>
      </trkpt>
      <trkpt lat="48.38066" lon="2.60357">
        <ele>124.62</ele>
        <time>2018-10-12T10:00:47Z</time>
      </trkpt>
      <trkpt lat="48.38054" lon="2.60363">
        <ele>124.64</ele>
        <time>2018-10-12T10:01:01Z</time>
      </trkpt>
      <trkpt lat="48.38046" lon="2.60369">
        <ele>124.62</ele>
        <time>2018-10-12T10:01:07Z</time>
      </trkpt>
      <trkpt lat="48.38041" lon="2.60375">
        <ele>124.6</ele>
        <time>2018-10-12T10:01:12Z</time>
      </trkpt>
      <trkpt lat="48.38031" lon="2.60385">
        <ele>124.6</ele>
        <time>2018-10-12T10:01:22Z</time>
      </trkpt>
      <trkpt lat="48.38013" lon="2.60396">
        <ele>124.61</ele>
        <time>2018-10-12T10:01:37Z</time>
      </trkpt>
      <trkpt lat="48.37998" lon="2.60409">
        <ele>124.62</ele>
        <time>2018-10-12T10:01:50Z</time>
      </trkpt>
      <trkpt lat="48.37991" lon="2.60414">
        <ele>124.64</ele>
        <time>2018-10-12T10:01:55Z</time>
      </trkpt>
      <trkpt lat="48.3798" lon="2.60426">
        <ele>124.63</ele>
        <time>2018-10-12T10:02:05Z</time>
      </trkpt>
      <trkpt lat="48.37978" lon="2.60431">
        <ele>124.64</ele>
        <time>2018-10-12T10:02:08Z</time>
      </trkpt>
      <trkpt lat="48.37978" lon="2.60437">
        <ele>124.64</ele>
        <time>2018-10-12T10:02:12Z</time>
      </trkpt>
      <trkpt lat="48.37987" lon="2.6047">
        <ele>125.5</ele>
        <time>2018-10-12T10:02:29Z</time>
      </trkpt>
      <trkpt lat="48.37991" lon="2.60489">
        <ele>125.5</ele>
        <time>2018-10-12T10:02:41Z</time>
      </trkpt>
      <trkpt lat="48.37995" lon="2.60507">
        <ele>125.53</ele>
        <time>2018-10-12T10:02:54Z</time>
      </trkpt>
      <trkpt lat="48.37998" lon="2.6053">
        <ele>125.61</ele>
        <time>2018-10-12T10:03:08Z</time>
      </trkpt>
      <trkpt lat="48.38009" lon="2.60574">
        <ele>125.77</ele>
        <time>2018-10-12T10:03:27Z</time>
      </trkpt>
      <trkpt lat="48.38008" lon="2.60577">
        <ele>125.79</ele>
        <time>2018-10-12T10:03:29Z</time>
      </trkpt>
      <trkpt lat="48.3801" lon="2.60594">
        <ele>125.87</ele>
        <time>2018-10-12T10:03:37Z</time>
      </trkpt>
      <trkpt lat="48.38014" lon="2.60604">
        <ele>125.91</ele>
        <time>2018-10-12T10:03:42Z</time>
      </trkpt>
      <trkpt lat="48.38021" lon="2.60627">
        <ele>126.05</ele>
        <time>2018-10-12T10:03:57Z</time>
      </trkpt>
      <trkpt lat="48.38024" lon="2.60637">
        <ele>126.09</ele>
        <time>2018-10-12T10:04:01Z</time>
      </trkpt>
      <trkpt lat="48.38031" lon="2.60667">
        <ele>126.27</ele>
        <time>2018-10-12T10:04:16Z</time>
      </trkpt>
      <trkpt lat="48.38038" lon="2.60694">
        <ele>126.42</ele>
        <time>2018-10-12T10:04:31Z</time>
      </trkpt>
      <trkpt lat="48.38047" lon="2.60723">
        <ele>126.56</ele>
        <time>2018-10-12T10:04:44Z</time>
      </trkpt>
      <trkpt lat="48.38052" lon="2.60739">
        <ele>126.65</ele>
        <time>2018-10-12T10:04:54Z</time>
      </trkpt>
      <trkpt lat="48.38053" lon="2.60748">
        <ele>126.7</ele>
        <time>2018-10-12T10:05:00Z</time>
      </trkpt>
      <trkpt lat="48.38055" lon="2.60769">
        <ele>126.78</ele>
        <time>2018-10-12T10:05:14Z</time>
      </trkpt>
      <trkpt lat="48.38057" lon="2.60781">
        <ele>126.84</ele>
        <time>2018-10-12T10:05:22Z</time>
      </trkpt>
      <trkpt lat="48.38058" lon="2.60784">
        <ele>126.84</ele>
        <time>2018-10-12T10:05:24Z</time>
      </trkpt>
      <trkpt lat="48.38062" lon="2.60809">
        <ele>126.96</ele>
        <time>2018-10-12T10:05:37Z</time>
      </trkpt>
      <trkpt lat="48.38072" lon="2.60841">
        <ele>127.08</ele>
        <time>2018-10-12T10:05:53Z</time>
      </trkpt>
      <trkpt lat="48.38076" lon="2.60862">
        <ele>127.18</ele>
        <time>2018-10-12T10:06:06Z</time>
      </trkpt>
      <trkpt lat="48.3808" lon="2.60885">
        <ele>127.26</ele>
        <time>2018-10-12T10:06:21Z</time>
      </trkpt>
      <trkpt lat="48.38084" lon="2.60896">
        <ele>127.3</ele>
        <time>2018-10-12T10:06:27Z</time>
      </trkpt>
      <trkpt lat="48.38092" lon="2.6092">
        <ele>127.4</ele>
        <time>2018-10-12T10:06:40Z</time>
      </trkpt>
      <trkpt lat="48.38093" lon="2.60928">
        <ele>127.44</ele>
        <time>2018-10-12T10:06:44Z</time>
      </trkpt>
      <trkpt lat="48.38098" lon="2.60936">
        <ele>127.47</ele>
        <time>2018-10-12T10:06:48Z</time>
      </trkpt>
      <trkpt lat="48.38103" lon="2.60958">
        <ele>127.54</ele>
        <time>2018-10-12T10:06:57Z</time>
      </trkpt>
      <trkpt lat="48.38106" lon="2.60983">
        <ele>127.69</ele>
        <time>2018-10-12T10:07:14Z</time>
      </trkpt>
      <trkpt lat="48.38107" lon="2.60986">
        <ele>127.71</ele>
        <time>2018-10-12T10:07:16Z</time>
      </trkpt>
      <trkpt lat="48.38112" lon="2.61009">
        <ele>127.82</ele>
        <time>2018-10-12T10:07:30Z</time>
      </trkpt>
      <trkpt lat="48.38118" lon="2.6104">
        <ele>127.93</ele>
        <time>2018-10-12T10:07:45Z</time>
      </trkpt>
      <trkpt lat="48.38118" lon="2.61047">
        <ele>127.96</ele>
        <time>2018-10-12T10:07:50Z</time>
      </trkpt>
      <trkpt lat="48.38126" lon="2.6107">
        <ele>128.02</ele>
        <time>2018-10-12T10:07:59Z</time>
      </trkpt>
      <trkpt lat="48.38129" lon="2.61083">
        <ele>128.04</ele>
        <time>2018-10-12T10:08:05Z</time>
      </trkpt>
      <trkpt lat="48.38129" lon="2.61112">
        <ele>128.14</ele>
        <time>2018-10-12T10:08:21Z</time>
      </trkpt>
      <trkpt lat="48.3813" lon="2.61119">
        <ele>128.16</ele>
        <time>2018-10-12T10:08:24Z</time>
      </trkpt>
      <trkpt lat="48.38133" lon="2.61142">
        <ele>128.22</ele>
        <time>2018-10-12T10:08:38Z</time>
      </trkpt>
      <trkpt lat="48.38134" lon="2.6116">
        <ele>128.29</ele>
        <time>2018-10-12T10:08:48Z</time>
      </trkpt>
      <trkpt lat="48.38135" lon="2.61184">
        <ele>128.36</ele>
        <time>2018-10-12T10:09:01Z</time>
      </trkpt>
      <trkpt lat="48.38134" lon="2.61208">
        <ele>128.44</ele>
        <time>2018-10-12T10:09:15Z</time>
      </trkpt>
      <trkpt lat="48.38133" lon="2.61214">
        <ele>128.48</ele>
        <time>2018-10-12T10:09:19Z</time>
      </trkpt>
      <trkpt lat="48.38133" lon="2.61226">
        <ele>128.52</ele>
        <time>2018-10-12T10:09:25Z</time>
      </trkpt>
      <trkpt lat="48.38135" lon="2.61251">
        <ele>128.65</ele>
        <time>2018-10-12T10:09:38Z</time>
      </trkpt>
      <trkpt lat="48.38135" lon="2.61278">
        <ele>128.77</ele>
        <time>2018-10-12T10:09:50Z</time>
      </trkpt>
      <trkpt lat="48.38134" lon="2.61296">
        <ele>126.58</ele>
        <time>2018-10-12T10:10:01Z</time>
      </trkpt>
      <trkpt lat="48.38133" lon="2.61307">
        <ele>126.65</ele>
        <time>2018-10-12T10:10:07Z</time>
      </trkpt>
      <trkpt lat="48.38133" lon="2.61318">
        <ele>126.71</ele>
        <time>2018-10-12T10:10:13Z</time>
      </trkpt>
      <trkpt lat="48.38135" lon="2.61344">
        <ele>126.83</ele>
        <time>2018-10-12T10:10:25Z</time>
      </trkpt>
      <trkpt lat="48.38136" lon="2.61353">
        <ele>126.12</ele>
        <time>2018-10-12T10:10:31Z</time>
      </trkpt>
      <trkpt lat="48.38137" lon="2.61376">
        <ele>126.24</ele>
        <time>2018-10-12T10:10:43Z</time>
      </trkpt>
      <trkpt lat="48.38137" lon="2.61404">
        <ele>126.38</ele>
        <time>2018-10-12T10:10:56Z</time>
      </trkpt>
      <trkpt lat="48.38136" lon="2.61422">
        <ele>126.49</ele>
        <time>2018-10-12T10:11:05Z</time>
      </trkpt>
      <trkpt lat="48.38142" lon="2.61453">
        <ele>126.62</ele>
        <time>2018-10-12T10:11:18Z</time>
      </trkpt>
      <trkpt lat="48.38142" lon="2.6146">
        <ele>126.65</ele>
        <time>2018-10-12T10:11:21Z</time>
      </trkpt>
      <trkpt lat="48.38142" lon="2.61475">
        <ele>126.7</ele>
        <time>2018-10-12T10:11:28Z</time>
      </trkpt>
      <trkpt lat="48.38142" lon="2.61479">
        <ele>126.71</ele>
        <time>2018-10-12T10:11:30Z</time>
      </trkpt>
      <trkpt lat="48.38143" lon="2.61491">
        <ele>126.79</ele>
        <time>2018-10-12T10:11:38Z</time>
      </trkpt>
      <trkpt lat="48.38141" lon="2.61501">
        <ele>126.88</ele>
        <time>2018-10-12T10:11:45Z</time>
      </trkpt>
      <trkpt lat="48.38141" lon="2.61508">
        <ele>126.93</ele>
        <time>2018-10-12T10:11:49Z</time>
      </trkpt>
      <trkpt lat="48.38144" lon="2.61522">
        <ele>127</ele>
        <time>2018-10-12T10:11:57Z</time>
      </trkpt>
      <trkpt lat="48.38145" lon="2.6155">
        <ele>127.12</ele>
        <time>2018-10-12T10:12:11Z</time>
      </trkpt>
      <trkpt lat="48.38145" lon="2.61553">
        <ele>127.15</ele>
        <time>2018-10-12T10:12:13Z</time>
      </trkpt>
      <trkpt lat="48.38145" lon="2.61579">
        <ele>127.24</ele>
        <time>2018-10-12T10:12:27Z</time>
      </trkpt>
      <trkpt lat="48.38147" lon="2.61597">
        <ele>127.3</ele>
        <time>2018-10-12T10:12:34Z</time>
      </trkpt>
      <trkpt lat="48.38147" lon="2.61606">
        <ele>127.34</ele>
        <time>2018-10-12T10:12:38Z</time>
      </trkpt>
      <trkpt lat="48.38147" lon="2.61626">
        <ele>127.42</ele>
        <time>2018-10-12T10:12:51Z</time>
      </trkpt>
      <trkpt lat="48.38147" lon="2.61635">
        <ele>127.45</ele>
        <time>2018-10-12T10:12:56Z</time>
      </trkpt>
      <trkpt lat="48.38146" lon="2.61662">
        <ele>127.55</ele>
        <time>2018-10-12T10:13:10Z</time>
      </trkpt>
      <trkpt lat="48.38147" lon="2.61697">
        <ele>127.64</ele>
        <time>2018-10-12T10:13:24Z</time>
      </trkpt>
      <trkpt lat="48.38149" lon="2.61713">
        <ele>127.63</ele>
        <time>2018-10-12T10:13:31Z</time>
      </trkpt>
      <trkpt lat="48.38148" lon="2.61727">
        <ele>127.67</ele>
        <time>2018-10-12T10:13:41Z</time>
      </trkpt>
      <trkpt lat="48.38148" lon="2.6175">
        <ele>127.76</ele>
        <time>2018-10-12T10:13:56Z</time>
      </trkpt>
      <trkpt lat="48.38147" lon="2.61775">
        <ele>127.84</ele>
        <time>2018-10-12T10:14:08Z</time>
      </trkpt>
      <trkpt lat="48.38145" lon="2.61798">
        <ele>127.94</ele>
        <time>2018-10-12T10:14:21Z</time>
      </trkpt>
      <trkpt lat="48.38148" lon="2.61824">
        <ele>128.04</ele>
        <time>2018-10-12T10:14:32Z</time>
      </trkpt>
      <trkpt lat="48.38149" lon="2.61829">
        <ele>128.06</ele>
        <time>2018-10-12T10:14:34Z</time>
      </trkpt>
      <trkpt lat="48.3815" lon="2.61858">
        <ele>128.2</ele>
        <time>2018-10-12T10:14:49Z</time>
      </trkpt>
      <trkpt lat="48.3815" lon="2.61859">
        <ele>128.2</ele>
        <time>2018-10-12T10:14:50Z</time>
      </trkpt>
      <trkpt lat="48.38148" lon="2.61879">
        <ele>128.31</ele>
        <time>2018-10-12T10:15:04Z</time>
      </trkpt>
      <trkpt lat="48.38147" lon="2.61883">
        <ele>128.33</ele>
        <time>2018-10-12T10:15:07Z</time>
      </trkpt>
      <trkpt lat="48.38132" lon="2.619">
        <ele>128.41</ele>
        <time>2018-10-12T10:15:21Z</time>
      </trkpt>
      <trkpt lat="48.38127" lon="2.61903">
        <ele>128.43</ele>
        <time>2018-10-12T10:15:25Z</time>
      </trkpt>
      <trkpt lat="48.38116" lon="2.61909">
        <ele>128.44</ele>
        <time>2018-10-12T10:15:34Z</time>
      </trkpt>
      <trkpt lat="48.38099" lon="2.61917">
        <ele>128.45</ele>
        <time>2018-10-12T10:15:49Z</time>
      </trkpt>
      <trkpt lat="48.38095" lon="2.61922">
        <ele>128.46</ele>
        <time>2018-10-12T10:15:54Z</time>
      </trkpt>
      <trkpt lat="48.38079" lon="2.61934">
        <ele>128.49</ele>
        <time>2018-10-12T10:16:09Z</time>
      </trkpt>
      <trkpt lat="48.38066" lon="2.61942">
        <ele>128.5</ele>
        <time>2018-10-12T10:16:21Z</time>
      </trkpt>
      <trkpt lat="48.38048" lon="2.61962">
        <ele>128.55</ele>
        <time>2018-10-12T10:16:36Z</time>
      </trkpt>
      <trkpt lat="48.38037" lon="2.61969">
        <ele>130.9</ele>
        <time>2018-10-12T10:16:46Z</time>
      </trkpt>
      <trkpt lat="48.38028" lon="2.61974">
        <ele>130.94</ele>
        <time>2018-10-12T10:16:58Z</time>
      </trkpt>
      <trkpt lat="48.38023" lon="2.61978">
        <ele>130.95</ele>
        <time>2018-10-12T10:17:03Z</time>
      </trkpt>
      <trkpt lat="48.38013" lon="2.61985">
        <ele>130.93</ele>
        <time>2018-10-12T10:17:19Z</time>
      </trkpt>
      <trkpt lat="48.3801" lon="2.61987">
        <ele>130.93</ele>
        <time>2018-10-12T10:17:22Z</time>
      </trkpt>
      <trkpt lat="48.38003" lon="2.61992">
        <ele>130.93</ele>
        <time>2018-10-12T10:17:30Z</time>
      </trkpt>
      <trkpt lat="48.3799" lon="2.62003">
        <ele>130.92</ele>
        <time>2018-10-12T10:17:42Z</time>
      </trkpt>
      <trkpt lat="48.37978" lon="2.62011">
        <ele>130.87</ele>
        <time>2018-10-12T10:17:51Z</time>
      </trkpt>
      <trkpt lat="48.37969" lon="2.62016">
        <ele>131.63</ele>
        <time>2018-10-12T10:17:59Z</time>
      </trkpt>
      <trkpt lat="48.37961" lon="2.62023">
        <ele>131.6</ele>
        <time>2018-10-12T10:18:08Z</time>
      </trkpt>
      <trkpt lat="48.37944" lon="2.62031">
        <ele>132.38</ele>
        <time>2018-10-12T10:18:23Z</time>
      </trkpt>
      <trkpt lat="48.3793" lon="2.62041">
        <ele>132.29</ele>
        <time>2018-10-12T10:18:39Z</time>
      </trkpt>
      <trkpt lat="48.37927" lon="2.62044">
        <ele>132.26</ele>
        <time>2018-10-12T10:18:44Z</time>
      </trkpt>
      <trkpt lat="48.37917" lon="2.62051">
        <ele>132.22</ele>
        <time>2018-10-12T10:18:52Z</time>
      </trkpt>
      <trkpt lat="48.37901" lon="2.62064">
        <ele>132.1</ele>
        <time>2018-10-12T10:19:09Z</time>
      </trkpt>
      <trkpt lat="48.37888" lon="2.62073">
        <ele>132.02</ele>
        <time>2018-10-12T10:19:21Z</time>
      </trkpt>
      <trkpt lat="48.37872" lon="2.62082">
        <ele>131.93</ele>
        <time>2018-10-12T10:19:33Z</time>
      </trkpt>
      <trkpt lat="48.37854" lon="2.62094">
        <ele>132.63</ele>
        <time>2018-10-12T10:19:49Z</time>
      </trkpt>
      <trkpt lat="48.37853" lon="2.62095">
        <ele>132.62</ele>
        <time>2018-10-12T10:19:50Z</time>
      </trkpt>
      <trkpt lat="48.37827" lon="2.62117">
        <ele>132.35</ele>
        <time>2018-10-12T10:20:12Z</time>
      </trkpt>
      <trkpt lat="48.37826" lon="2.62117">
        <ele>132.34</ele>
        <time>2018-10-12T10:20:13Z</time>
      </trkpt>
      <trkpt lat="48.37813" lon="2.62128">
        <ele>132.19</ele>
        <time>2018-10-12T10:20:24Z</time>
      </trkpt>
      <trkpt lat="48.37801" lon="2.62138">
        <ele>132.06</ele>
        <time>2018-10-12T10:20:36Z</time>
      </trkpt>
      <trkpt lat="48.37786" lon="2.6215">
        <ele>131.91</ele>
        <time>2018-10-12T10:20:49Z</time>
      </trkpt>
      <trkpt lat="48.37779" lon="2.62154">
        <ele>131.87</ele>
        <time>2018-10-12T10:20:54Z</time>
      </trkpt>
      <trkpt lat="48.37762" lon="2.62168">
        <ele>131.72</ele>
        <time>2018-10-12T10:21:10Z</time>
      </trkpt>
      <trkpt lat="48.37752" lon="2.62175">
        <ele>131.64</ele>
        <time>2018-10-12T10:21:19Z</time>
      </trkpt>
      <trkpt lat="48.37737" lon="2.62189">
        <ele>131.59</ele>
        <time>2018-10-12T10:21:35Z</time>
      </trkpt>
      <trkpt lat="48.37719" lon="2.622">
        <ele>131.43</ele>
        <time>2018-10-12T10:21:50Z</time>
      </trkpt>
      <trkpt lat="48.37704" lon="2.62211">
        <ele>131.37</ele>
        <time>2018-10-12T10:22:03Z</time>
      </trkpt>
      <trkpt lat="48.37686" lon="2.62221">
        <ele>131.27</ele>
        <time>2018-10-12T10:22:17Z</time>
      </trkpt>
      <trkpt lat="48.37672" lon="2.6223">
        <ele>131.21</ele>
        <time>2018-10-12T10:22:28Z</time>
      </trkpt>
      <trkpt lat="48.37658" lon="2.62239">
        <ele>131.93</ele>
        <time>2018-10-12T10:22:40Z</time>
      </trkpt>
      <trkpt lat="48.37642" lon="2.62253">
        <ele>131.87</ele>
        <time>2018-10-12T10:22:55Z</time>
      </trkpt>
      <trkpt lat="48.37621" lon="2.62267">
        <ele>131.8</ele>
        <time>2018-10-12T10:23:15Z</time>
      </trkpt>
      <trkpt lat="48.37617" lon="2.6227">
        <ele>131.79</ele>
        <time>2018-10-12T10:23:18Z</time>
      </trkpt>
      <trkpt lat="48.37601" lon="2.62283">
        <ele>131.77</ele>
        <time>2018-10-12T10:23:31Z</time>
      </trkpt>
      <trkpt lat="48.376" lon="2.62284">
        <ele>131.76</ele>
        <time>2018-10-12T10:23:32Z</time>
      </trkpt>
      <trkpt lat="48.37583" lon="2.62295">
        <ele>131.71</ele>
        <time>2018-10-12T10:23:45Z</time>
      </trkpt>
      <trkpt lat="48.37582" lon="2.62296">
        <ele>131.71</ele>
        <time>2018-10-12T10:23:46Z</time>
      </trkpt>
      <trkpt lat="48.37581" lon="2.62298">
        <ele>131.7</ele>
        <time>2018-10-12T10:23:48Z</time>
      </trkpt>
      <trkpt lat="48.37573" lon="2.62304">
        <ele>131.68</ele>
        <time>2018-10-12T10:23:55Z</time>
      </trkpt>
      <trkpt lat="48.37572" lon="2.62307">
        <ele>131.67</ele>
        <time>2018-10-12T10:23:57Z</time>
      </trkpt>
      <trkpt lat="48.37569" lon="2.62309">
        <ele>131.65</ele>
        <time>2018-10-12T10:24:00Z</time>
      </trkpt>
      <trkpt lat="48.3756" lon="2.62311">
        <ele>131.58</ele>
        <time>2018-10-12T10:24:15Z</time>
      </trkpt>
      <trkpt lat="48.37561" lon="2.62309">
        <ele>131.49</ele>
        <time>2018-10-12T10:24:36Z</time>
      </trkpt>
      <trkpt lat="48.37565" lon="2.6231">
        <ele>143.59</ele>
        <time>2018-10-12T10:25:04Z</time>
      </trkpt>
    </trkseg>
  </trk>
</gpx>